Wetterdaten: Mittwoch, 11.06.2014
Datum Zeit Temp. Aussen +5cm Feuchte Auss Luftdruck Regen Sonnenschein Regendauer UV Solar Windben
11.06.2014 00:00 20,3 C 18,9 C 86 % 1021,0 hPa 0,0 l/m 0 min 0 min 0,0 UV-I 0 W/m 10,5 km/h (2 Bft)
11.06.2014 00:02 20,3 C 18,9 C 86 % 1021,1 hPa 0,0 l/m 0 min 0 min 0,0 UV-I 0 W/m 10,5 km/h (2 Bft)
11.06.2014 00:06 20,2 C 18,3 C 86 % 1021,1 hPa 0,0 l/m 0 min 0 min 0,0 UV-I 0 W/m 10,5 km/h (2 Bft)
11.06.2014 00:08 20,2 C 18,3 C 87 % 1021,0 hPa 0,0 l/m 0 min 0 min 0,0 UV-I 0 W/m 6,3 km/h (2 Bft)
11.06.2014 00:10 20,2 C 18,3 C 86 % 1021,0 hPa 0,0 l/m 0 min 0 min 0,0 UV-I 0 W/m 6,3 km/h (2 Bft)
11.06.2014 00:12 20,1 C 18,3 C 87 % 1021,0 hPa 0,0 l/m 0 min 0 min 0,0 UV-I 0 W/m 6,3 km/h (2 Bft)
11.06.2014 00:14 20,1 C 18,3 C 86 % 1021,0 hPa 0,0 l/m 0 min 0 min 0,0 UV-I 0 W/m 0,0 km/h (0 Bft)
11.06.2014 00:16 20,1 C 18,3 C 86 % 1021,1 hPa 0,0 l/m 0 min 0 min 0,0 UV-I 0 W/m 8,4 km/h (2 Bft)
11.06.2014 00:18 20,1 C 18,3 C 86 % 1021,2 hPa 0,0 l/m 0 min 0 min 0,0 UV-I 0 W/m 8,4 km/h (2 Bft)
11.06.2014 00:20 20,1 C 18,3 C 86 % 1021,1 hPa 0,0 l/m 0 min 0 min 0,0 UV-I 0 W/m 10,5 km/h (2 Bft)
11.06.2014 00:22 20,1 C 18,3 C 86 % 1021,1 hPa 0,0 l/m 0 min 0 min 0,0 UV-I 0 W/m 10,5 km/h (2 Bft)
11.06.2014 00:24 20,1 C 18,3 C 86 % 1021,1 hPa 0,0 l/m 0 min 0 min 0,0 UV-I 0 W/m 8,4 km/h (2 Bft)
11.06.2014 00:26 20,1 C 18,9 C 86 % 1021,1 hPa 0,0 l/m 0 min 0 min 0,0 UV-I 0 W/m 6,3 km/h (2 Bft)
11.06.2014 00:28 20,1 C 18,9 C 86 % 1021,0 hPa 0,0 l/m 0 min 0 min 0,0 UV-I 0 W/m 10,5 km/h (2 Bft)
11.06.2014 00:30 20,1 C 18,9 C 86 % 1021,0 hPa 0,0 l/m 0 min 0 min 0,0 UV-I 0 W/m 8,4 km/h (2 Bft)
11.06.2014 00:32 20,2 C 18,9 C 86 % 1021,0 hPa 0,0 l/m 0 min 0 min 0,0 UV-I 0 W/m 8,4 km/h (2 Bft)
11.06.2014 00:34 20,1 C 18,9 C 87 % 1021,1 hPa 0,0 l/m 0 min 0 min 0,0 UV-I 0 W/m 10,5 km/h (2 Bft)
11.06.2014 00:36 20,1 C 18,9 C 86 % 1021,3 hPa 0,0 l/m 0 min 0 min 0,0 UV-I 0 W/m 10,5 km/h (2 Bft)
11.06.2014 00:38 20,1 C 18,9 C 87 % 1021,5 hPa 0,0 l/m 0 min 0 min 0,0 UV-I 0 W/m 8,4 km/h (2 Bft)
11.06.2014 00:40 20,1 C 18,9 C 87 % 1021,7 hPa 0,0 l/m 0 min 0 min 0,0 UV-I 0 W/m 6,3 km/h (2 Bft)
11.06.2014 00:42 20,1 C 18,9 C 88 % 1021,9 hPa 0,0 l/m 0 min 0 min 0,0 UV-I 0 W/m 10,5 km/h (2 Bft)
11.06.2014 00:44 20,1 C 18,9 C 88 % 1021,9 hPa 0,0 l/m 0 min 0 min 0,0 UV-I 0 W/m 12,6 km/h (3 Bft)
11.06.2014 00:46 20,1 C 18,9 C 88 % 1021,9 hPa 0,0 l/m 0 min 0 min 0,0 UV-I 0 W/m 10,5 km/h (2 Bft)
11.06.2014 00:48 20,1 C 18,9 C 88 % 1021,9 hPa 0,0 l/m 0 min 2 min 0,0 UV-I 0 W/m 14,6 km/h (3 Bft)
11.06.2014 00:50 20,1 C 18,3 C 88 % 1022,0 hPa 0,0 l/m 0 min 2 min 0,0 UV-I 0 W/m 14,6 km/h (3 Bft)
11.06.2014 00:52 20,1 C 18,3 C 88 % 1022,0 hPa 0,0 l/m 0 min 0 min 0,0 UV-I 0 W/m 8,4 km/h (2 Bft)
11.06.2014 00:54 20,0 C 18,3 C 88 % 1022,0 hPa 0,0 l/m 0 min 0 min 0,0 UV-I 0 W/m 14,6 km/h (3 Bft)
11.06.2014 00:56 20,0 C 18,3 C 88 % 1022,1 hPa 0,0 l/m 0 min 0 min 0,0 UV-I 0 W/m 14,6 km/h (3 Bft)
11.06.2014 00:58 20,0 C 17,8 C 89 % 1022,1 hPa 0,0 l/m 0 min 0 min 0,0 UV-I 0 W/m 18,8 km/h (3 Bft)
11.06.2014 01:00 19,9 C 17,8 C 89 % 1022,1 hPa 0,0 l/m 0 min 0 min 0,0 UV-I 0 W/m 14,6 km/h (3 Bft)
11.06.2014 01:02 19,9 C 17,8 C 89 % 1022,1 hPa 0,0 l/m 0 min 0 min 0,0 UV-I 0 W/m 16,7 km/h (3 Bft)
11.06.2014 01:06 19,7 C 17,2 C 90 % 1022,1 hPa 0,0 l/m 0 min 0 min 0,0 UV-I 0 W/m 14,6 km/h (3 Bft)
11.06.2014 01:08 19,6 C 17,2 C 90 % 1022,0 hPa 0,0 l/m 0 min 0 min 0,0 UV-I 0 W/m 6,3 km/h (2 Bft)
11.06.2014 01:10 19,6 C 17,2 C 90 % 1022,0 hPa 0,0 l/m 0 min 0 min 0,0 UV-I 0 W/m 12,6 km/h (3 Bft)
11.06.2014 01:12 19,5 C 17,2 C 90 % 1021,9 hPa 0,0 l/m 0 min 2 min 0,0 UV-I 0 W/m 14,6 km/h (3 Bft)
11.06.2014 01:14 19,4 C 17,2 C 90 % 1021,8 hPa 0,2 l/m 0 min 2 min 0,0 UV-I 0 W/m 10,5 km/h (2 Bft)
11.06.2014 01:16 19,4 C 17,2 C 91 % 1021,7 hPa 0,0 l/m 0 min 2 min 0,0 UV-I 0 W/m 14,6 km/h (3 Bft)
11.06.2014 01:18 19,3 C 17,2 C 91 % 1022,0 hPa 0,0 l/m 0 min 2 min 0,0 UV-I 0 W/m 6,3 km/h (2 Bft)
11.06.2014 01:20 19,3 C 17,2 C 92 % 1022,2 hPa 0,0 l/m 0 min 2 min 0,0 UV-I 0 W/m 6,3 km/h (2 Bft)
11.06.2014 01:22 19,2 C 17,2 C 92 % 1022,3 hPa 0,0 l/m 0 min 2 min 0,0 UV-I 0 W/m 4,2 km/h (1 Bft)
11.06.2014 01:24 19,2 C 17,2 C 92 % 1022,1 hPa 0,2 l/m 0 min 2 min 0,0 UV-I 0 W/m 6,3 km/h (2 Bft)
11.06.2014 01:26 19,1 C 17,2 C 93 % 1022,2 hPa 0,0 l/m 0 min 2 min 0,0 UV-I 0 W/m 6,3 km/h (2 Bft)
11.06.2014 01:28 19,1 C 17,2 C 93 % 1022,8 hPa 0,2 l/m 0 min 2 min 0,0 UV-I 0 W/m 10,5 km/h (2 Bft)
11.06.2014 01:30 19,0 C 17,2 C 93 % 1023,0 hPa 0,4 l/m 0 min 2 min 0,0 UV-I 0 W/m 12,6 km/h (3 Bft)
11.06.2014 01:32 18,9 C 17,2 C 94 % 1023,1 hPa 0,2 l/m 0 min 2 min 0,0 UV-I 0 W/m 12,6 km/h (3 Bft)
11.06.2014 01:34 18,9 C 17,2 C 94 % 1023,1 hPa 0,2 l/m 0 min 2 min 0,0 UV-I 0 W/m 12,6 km/h (3 Bft)
11.06.2014 01:36 18,8 C 17,2 C 94 % 1023,1 hPa 0,0 l/m 0 min 2 min 0,0 UV-I 0 W/m 10,5 km/h (2 Bft)
11.06.2014 01:38 18,8 C 17,2 C 94 % 1023,0 hPa 0,2 l/m 0 min 2 min 0,0 UV-I 0 W/m 12,6 km/h (3 Bft)
11.06.2014 01:40 18,7 C 17,2 C 95 % 1022,8 hPa 0,0 l/m 0 min 2 min 0,0 UV-I 0 W/m 0,0 km/h (0 Bft)
11.06.2014 01:42 18,7 C 17,2 C 95 % 1022,7 hPa 0,0 l/m 0 min 2 min 0,0 UV-I 0 W/m 0,0 km/h (0 Bft)
11.06.2014 01:44 18,7 C 17,2 C 95 % 1022,4 hPa 0,2 l/m 0 min 2 min 0,0 UV-I 0 W/m 0,0 km/h (0 Bft)
11.06.2014 01:46 18,7 C 17,2 C 95 % 1022,1 hPa 0,4 l/m 0 min 2 min 0,0 UV-I 0 W/m 2,1 km/h (1 Bft)
11.06.2014 01:48 18,7 C 17,2 C 95 % 1021,8 hPa 0,4 l/m 0 min 2 min 0,0 UV-I 0 W/m 10,5 km/h (2 Bft)
11.06.2014 01:50 18,7 C 17,2 C 96 % 1021,2 hPa 0,0 l/m 0 min 2 min 0,0 UV-I 0 W/m 20,9 km/h (4 Bft)
11.06.2014 01:52 18,6 C 16,7 C 96 % 1020,8 hPa 0,2 l/m 0 min 2 min 0,0 UV-I 0 W/m 20,9 km/h (4 Bft)
11.06.2014 01:54 18,6 C 16,7 C 96 % 1020,5 hPa 0,2 l/m 0 min 2 min 0,0 UV-I 0 W/m 25,1 km/h (4 Bft)
11.06.2014 01:56 18,5 C 16,7 C 96 % 1020,4 hPa 0,2 l/m 0 min 2 min 0,0 UV-I 0 W/m 20,9 km/h (4 Bft)
11.06.2014 01:58 18,4 C 16,7 C 96 % 1020,6 hPa 0,0 l/m 0 min 2 min 0,0 UV-I 0 W/m 20,9 km/h (4 Bft)
11.06.2014 02:00 18,4 C 16,7 C 96 % 1020,9 hPa 0,2 l/m 0 min 2 min 0,0 UV-I 0 W/m 18,8 km/h (3 Bft)
11.06.2014 02:02 18,4 C 16,7 C 96 % 1021,5 hPa 0,0 l/m 0 min 2 min 0,0 UV-I 0 W/m 8,4 km/h (2 Bft)
11.06.2014 02:06 18,4 C 17,2 C 96 % 1021,8 hPa 0,0 l/m 0 min 2 min 0,0 UV-I 0 W/m 14,6 km/h (3 Bft)
11.06.2014 02:08 18,4 C 17,2 C 97 % 1022,0 hPa 0,0 l/m 0 min 2 min 0,0 UV-I 0 W/m 12,6 km/h (3 Bft)
11.06.2014 02:10 18,4 C 17,2 C 97 % 1022,1 hPa 0,0 l/m 0 min 0 min 0,0 UV-I 0 W/m 6,3 km/h (2 Bft)
11.06.2014 02:12 18,4 C 17,2 C 97 % 1022,3 hPa 0,0 l/m 0 min 0 min 0,0 UV-I 0 W/m 8,4 km/h (2 Bft)
11.06.2014 02:14 18,4 C 17,2 C 97 % 1022,4 hPa 0,0 l/m 0 min 0 min 0,0 UV-I 0 W/m 8,4 km/h (2 Bft)
11.06.2014 02:16 18,4 C 17,2 C 97 % 1022,2 hPa 0,0 l/m 0 min 0 min 0,0 UV-I 0 W/m 8,4 km/h (2 Bft)
11.06.2014 02:18 18,4 C 17,2 C 97 % 1022,3 hPa 0,0 l/m 0 min 0 min 0,0 UV-I 0 W/m 6,3 km/h (2 Bft)
11.06.2014 02:20 18,4 C 17,2 C 97 % 1022,5 hPa 0,0 l/m 0 min 0 min 0,0 UV-I 0 W/m 8,4 km/h (2 Bft)
11.06.2014 02:22 18,3 C 17,2 C 97 % 1022,5 hPa 0,0 l/m 0 min 0 min 0,0 UV-I 0 W/m 6,3 km/h (2 Bft)
11.06.2014 02:24 18,3 C 17,2 C 97 % 1022,4 hPa 0,0 l/m 0 min 0 min 0,0 UV-I 0 W/m 8,4 km/h (2 Bft)
11.06.2014 02:26 18,3 C 17,2 C 97 % 1022,2 hPa 0,0 l/m 0 min 0 min 0,0 UV-I 0 W/m 2,1 km/h (1 Bft)
11.06.2014 02:28 18,3 C 16,7 C 97 % 1022,1 hPa 0,0 l/m 0 min 2 min 0,0 UV-I 0 W/m 0,0 km/h (0 Bft)
11.06.2014 02:30 18,3 C 17,2 C 97 % 1022,2 hPa 0,0 l/m 0 min 2 min 0,0 UV-I 0 W/m 0,0 km/h (0 Bft)
11.06.2014 02:32 18,3 C 17,2 C 97 % 1022,1 hPa 0,0 l/m 0 min 2 min 0,0 UV-I 0 W/m 0,0 km/h (0 Bft)
11.06.2014 02:34 18,2 C 17,2 C 97 % 1022,0 hPa 0,0 l/m 0 min 2 min 0,0 UV-I 0 W/m 0,0 km/h (0 Bft)
11.06.2014 02:36 18,3 C 17,2 C 97 % 1021,8 hPa 0,0 l/m 0 min 2 min 0,0 UV-I 0 W/m 2,1 km/h (1 Bft)
11.06.2014 02:38 18,3 C 16,7 C 97 % 1021,7 hPa 0,2 l/m 0 min 2 min 0,0 UV-I 0 W/m 0,0 km/h (0 Bft)
11.06.2014 02:40 18,3 C 16,7 C 97 % 1022,0 hPa 0,0 l/m 0 min 2 min 0,0 UV-I 0 W/m 2,1 km/h (1 Bft)
11.06.2014 02:42 18,3 C 17,2 C 97 % 1022,1 hPa 0,2 l/m 0 min 2 min 0,0 UV-I 0 W/m 0,0 km/h (0 Bft)
11.06.2014 02:44 18,3 C 16,7 C 98 % 1022,0 hPa 0,0 l/m 0 min 2 min 0,0 UV-I 0 W/m 0,0 km/h (0 Bft)
11.06.2014 02:46 18,3 C 16,7 C 98 % 1021,8 hPa 0,0 l/m 0 min 2 min 0,0 UV-I 0 W/m 8,4 km/h (2 Bft)
11.06.2014 02:48 18,3 C 16,7 C 98 % 1022,0 hPa 0,0 l/m 0 min 2 min 0,0 UV-I 0 W/m 0,0 km/h (0 Bft)
11.06.2014 02:50 18,3 C 16,7 C 98 % 1022,0 hPa 0,0 l/m 0 min 2 min 0,0 UV-I 0 W/m 0,0 km/h (0 Bft)
11.06.2014 02:52 18,3 C 16,7 C 98 % 1022,0 hPa 0,0 l/m 0 min 0 min 0,0 UV-I 0 W/m 0,0 km/h (0 Bft)
11.06.2014 02:54 18,3 C 16,7 C 98 % 1022,0 hPa 0,0 l/m 0 min 0 min 0,0 UV-I 0 W/m 0,0 km/h (0 Bft)
11.06.2014 02:56 18,3 C 16,7 C 98 % 1022,0 hPa 0,0 l/m 0 min 0 min 0,0 UV-I 0 W/m 2,1 km/h (1 Bft)
11.06.2014 02:58 18,3 C 16,7 C 98 % 1021,9 hPa 0,0 l/m 0 min 0 min 0,0 UV-I 0 W/m 2,1 km/h (1 Bft)
11.06.2014 03:00 18,2 C 16,7 C 98 % 1021,8 hPa 0,0 l/m 0 min 0 min 0,0 UV-I 0 W/m 0,0 km/h (0 Bft)
11.06.2014 03:02 18,2 C 16,7 C 98 % 1021,7 hPa 0,0 l/m 0 min 0 min 0,0 UV-I 0 W/m 6,3 km/h (2 Bft)
11.06.2014 03:06 18,2 C 16,7 C 98 % 1021,6 hPa 0,0 l/m 0 min 2 min 0,0 UV-I 0 W/m 10,5 km/h (2 Bft)
11.06.2014 03:08 18,2 C 16,7 C 98 % 1021,7 hPa 0,0 l/m 0 min 2 min 0,0 UV-I 0 W/m 8,4 km/h (2 Bft)
11.06.2014 03:10 18,1 C 16,7 C 98 % 1021,7 hPa 0,0 l/m 0 min 0 min 0,0 UV-I 0 W/m 10,5 km/h (2 Bft)
11.06.2014 03:12 18,1 C 16,7 C 98 % 1021,7 hPa 0,0 l/m 0 min 0 min 0,0 UV-I 0 W/m 6,3 km/h (2 Bft)
11.06.2014 03:14 18,2 C 16,7 C 98 % 1021,6 hPa 0,0 l/m 0 min 0 min 0,0 UV-I 0 W/m 8,4 km/h (2 Bft)
11.06.2014 03:16 18,1 C 16,7 C 98 % 1021,6 hPa 0,0 l/m 0 min 0 min 0,0 UV-I 0 W/m 12,6 km/h (3 Bft)
11.06.2014 03:18 18,1 C 16,7 C 98 % 1021,6 hPa 0,0 l/m 0 min 0 min 0,0 UV-I 0 W/m 10,5 km/h (2 Bft)
11.06.2014 03:20 18,1 C 16,7 C 98 % 1021,6 hPa 0,0 l/m 0 min 0 min 0,0 UV-I 0 W/m 14,6 km/h (3 Bft)
11.06.2014 03:22 18,1 C 16,7 C 98 % 1021,7 hPa 0,0 l/m 0 min 0 min 0,0 UV-I 0 W/m 14,6 km/h (3 Bft)
11.06.2014 03:24 17,9 C 16,7 C 98 % 1021,8 hPa 0,0 l/m 0 min 0 min 0,0 UV-I 0 W/m 16,7 km/h (3 Bft)
11.06.2014 03:26 17,9 C 16,7 C 98 % 1021,9 hPa 0,0 l/m 0 min 0 min 0,0 UV-I 0 W/m 12,6 km/h (3 Bft)
11.06.2014 03:28 17,7 C 16,7 C 98 % 1022,0 hPa 0,0 l/m 0 min 0 min 0,0 UV-I 0 W/m 18,8 km/h (3 Bft)
11.06.2014 03:30 17,5 C 16,1 C 98 % 1022,1 hPa 0,0 l/m 0 min 0 min 0,0 UV-I 0 W/m 18,8 km/h (3 Bft)
11.06.2014 03:32 17,2 C 15,6 C 98 % 1022,2 hPa 0,0 l/m 0 min 0 min 0,0 UV-I 0 W/m 16,7 km/h (3 Bft)
11.06.2014 03:34 17,0 C 15,6 C 97 % 1022,1 hPa 0,0 l/m 0 min 0 min 0,0 UV-I 0 W/m 10,5 km/h (2 Bft)
11.06.2014 03:36 16,9 C 15,0 C 97 % 1022,2 hPa 0,0 l/m 0 min 0 min 0,0 UV-I 0 W/m 10,5 km/h (2 Bft)
11.06.2014 03:38 16,8 C 15,0 C 97 % 1022,3 hPa 0,0 l/m 0 min 0 min 0,0 UV-I 0 W/m 8,4 km/h (2 Bft)
11.06.2014 03:40 16,8 C 15,0 C 97 % 1022,4 hPa 0,0 l/m 0 min 0 min 0,0 UV-I 0 W/m 4,2 km/h (1 Bft)
11.06.2014 03:42 16,7 C 15,0 C 96 % 1022,4 hPa 0,0 l/m 0 min 0 min 0,0 UV-I 0 W/m 6,3 km/h (2 Bft)
11.06.2014 03:44 16,7 C 15,0 C 96 % 1022,5 hPa 0,0 l/m 0 min 0 min 0,0 UV-I 0 W/m 2,1 km/h (1 Bft)
11.06.2014 03:46 16,7 C 15,0 C 96 % 1022,4 hPa 0,0 l/m 0 min 0 min 0,0 UV-I 0 W/m 8,4 km/h (2 Bft)
11.06.2014 03:48 16,7 C 15,0 C 96 % 1022,5 hPa 0,0 l/m 0 min 0 min 0,0 UV-I 0 W/m 8,4 km/h (2 Bft)
11.06.2014 03:50 16,7 C 15,0 C 96 % 1022,5 hPa 0,0 l/m 0 min 0 min 0,0 UV-I 0 W/m 2,1 km/h (1 Bft)
11.06.2014 03:52 16,7 C 15,0 C 96 % 1022,5 hPa 0,0 l/m 0 min 0 min 0,0 UV-I 0 W/m 4,2 km/h (1 Bft)
11.06.2014 03:54 16,7 C 15,0 C 95 % 1022,5 hPa 0,0 l/m 0 min 0 min 0,0 UV-I 0 W/m 8,4 km/h (2 Bft)
11.06.2014 03:56 16,7 C 15,0 C 95 % 1022,5 hPa 0,0 l/m 0 min 0 min 0,0 UV-I 0 W/m 8,4 km/h (2 Bft)
11.06.2014 03:58 16,7 C 15,0 C 95 % 1022,4 hPa 0,0 l/m 0 min 0 min 0,0 UV-I 0 W/m 8,4 km/h (2 Bft)
11.06.2014 04:00 16,7 C 15,0 C 95 % 1022,4 hPa 0,0 l/m 0 min 0 min 0,0 UV-I 0 W/m 10,5 km/h (2 Bft)
11.06.2014 04:02 16,7 C 15,0 C 95 % 1022,5 hPa 0,0 l/m 0 min 0 min 0,0 UV-I 0 W/m 0,0 km/h (0 Bft)
11.06.2014 04:06 16,7 C 15,0 C 95 % 1022,3 hPa 0,0 l/m 0 min 2 min 0,0 UV-I 0 W/m 8,4 km/h (2 Bft)
11.06.2014 04:08 16,7 C 15,0 C 95 % 1022,5 hPa 0,0 l/m 0 min 2 min 0,0 UV-I 0 W/m 0,0 km/h (0 Bft)
11.06.2014 04:10 16,6 C 15,0 C 95 % 1022,5 hPa 0,0 l/m 0 min 2 min 0,0 UV-I 0 W/m 0,0 km/h (0 Bft)
11.06.2014 04:12 16,7 C 15,0 C 95 % 1022,5 hPa 0,0 l/m 0 min 2 min 0,0 UV-I 0 W/m 8,4 km/h (2 Bft)
11.06.2014 04:14 16,7 C 15,0 C 95 % 1022,6 hPa 0,0 l/m 0 min 0 min 0,0 UV-I 0 W/m 6,3 km/h (2 Bft)
11.06.2014 04:16 16,7 C 15,0 C 95 % 1022,7 hPa 0,0 l/m 0 min 2 min 0,0 UV-I 0 W/m 0,0 km/h (0 Bft)
11.06.2014 04:18 16,6 C 15,0 C 95 % 1022,6 hPa 0,0 l/m 0 min 0 min 0,0 UV-I 0 W/m 4,2 km/h (1 Bft)
11.06.2014 04:20 16,6 C 15,0 C 95 % 1022,6 hPa 0,0 l/m 0 min 2 min 0,0 UV-I 0 W/m 6,3 km/h (2 Bft)
11.06.2014 04:22 16,6 C 15,0 C 95 % 1022,5 hPa 0,0 l/m 0 min 0 min 0,0 UV-I 0 W/m 6,3 km/h (2 Bft)
11.06.2014 04:24 16,6 C 15,0 C 95 % 1022,5 hPa 0,0 l/m 0 min 0 min 0,0 UV-I 0 W/m 8,4 km/h (2 Bft)
11.06.2014 04:26 16,6 C 15,0 C 95 % 1022,6 hPa 0,0 l/m 0 min 0 min 0,0 UV-I 0 W/m 8,4 km/h (2 Bft)
11.06.2014 04:28 16,6 C 15,0 C 95 % 1022,6 hPa 0,0 l/m 0 min 0 min 0,0 UV-I 0 W/m 8,4 km/h (2 Bft)
11.06.2014 04:30 16,6 C 15,0 C 95 % 1022,7 hPa 0,0 l/m 0 min 0 min 0,0 UV-I 0 W/m 4,2 km/h (1 Bft)
11.06.2014 04:32 16,6 C 15,0 C 96 % 1022,9 hPa 0,0 l/m 0 min 0 min 0,0 UV-I 0 W/m 12,6 km/h (3 Bft)
11.06.2014 04:34 16,6 C 15,0 C 96 % 1023,1 hPa 0,0 l/m 0 min 0 min 0,0 UV-I 0 W/m 4,2 km/h (1 Bft)
11.06.2014 04:36 16,6 C 15,0 C 96 % 1023,1 hPa 0,0 l/m 0 min 0 min 0,0 UV-I 0 W/m 0,0 km/h (0 Bft)
11.06.2014 04:38 16,5 C 15,0 C 96 % 1023,2 hPa 0,0 l/m 0 min 2 min 0,0 UV-I 0 W/m 2,1 km/h (1 Bft)
11.06.2014 04:40 16,4 C 15,0 C 96 % 1023,3 hPa 0,0 l/m 0 min 2 min 0,0 UV-I 0 W/m 0,0 km/h (0 Bft)
11.06.2014 04:42 16,3 C 15,0 C 96 % 1023,3 hPa 0,0 l/m 0 min 2 min 0,0 UV-I 0 W/m 2,1 km/h (1 Bft)
11.06.2014 04:44 16,2 C 15,0 C 96 % 1023,4 hPa 0,2 l/m 0 min 2 min 0,0 UV-I 0 W/m 2,1 km/h (1 Bft)
11.06.2014 04:46 16,2 C 15,0 C 96 % 1023,4 hPa 0,0 l/m 0 min 2 min 0,0 UV-I 0 W/m 0,0 km/h (0 Bft)
11.06.2014 04:48 16,1 C 15,0 C 96 % 1023,5 hPa 0,0 l/m 0 min 2 min 0,0 UV-I 0 W/m 0,0 km/h (0 Bft)
11.06.2014 04:50 16,0 C 14,4 C 96 % 1023,6 hPa 0,0 l/m 0 min 2 min 0,0 UV-I 0 W/m 0,0 km/h (0 Bft)
11.06.2014 04:52 15,9 C 14,4 C 96 % 1023,8 hPa 0,0 l/m 0 min 0 min 0,0 UV-I 0 W/m 0,0 km/h (0 Bft)
11.06.2014 04:54 15,9 C 15,0 C 96 % 1023,9 hPa 0,0 l/m 0 min 0 min 0,0 UV-I 0 W/m 6,3 km/h (2 Bft)
11.06.2014 04:56 16,0 C 15,0 C 96 % 1024,1 hPa 0,0 l/m 0 min 0 min 0,0 UV-I 0 W/m 6,3 km/h (2 Bft)
11.06.2014 04:58 16,1 C 15,0 C 96 % 1024,2 hPa 0,0 l/m 0 min 0 min 0,0 UV-I 0 W/m 6,3 km/h (2 Bft)
11.06.2014 05:00 16,1 C 15,0 C 96 % 1024,2 hPa 0,0 l/m 0 min 0 min 0,0 UV-I 0 W/m 6,3 km/h (2 Bft)
11.06.2014 05:02 16,1 C 15,0 C 96 % 1024,3 hPa 0,0 l/m 0 min 2 min 0,0 UV-I 0 W/m 10,5 km/h (2 Bft)
11.06.2014 05:06 16,1 C 15,0 C 96 % 1024,4 hPa 0,0 l/m 0 min 2 min 0,0 UV-I 0 W/m 6,3 km/h (2 Bft)
11.06.2014 05:08 16,0 C 15,0 C 96 % 1024,4 hPa 0,0 l/m 0 min 2 min 0,0 UV-I 0 W/m 0,0 km/h (0 Bft)
11.06.2014 05:10 16,1 C 15,0 C 96 % 1024,3 hPa 0,0 l/m 0 min 2 min 0,0 UV-I 0 W/m 0,0 km/h (0 Bft)
11.06.2014 05:12 16,1 C 14,4 C 96 % 1024,2 hPa 0,0 l/m 0 min 2 min 0,0 UV-I 0 W/m 8,4 km/h (2 Bft)
11.06.2014 05:14 16,1 C 14,4 C 96 % 1024,2 hPa 0,2 l/m 0 min 2 min 0,0 UV-I 0 W/m 6,3 km/h (2 Bft)
11.06.2014 05:16 16,1 C 14,4 C 96 % 1024,3 hPa 0,0 l/m 0 min 2 min 0,0 UV-I 0 W/m 6,3 km/h (2 Bft)
11.06.2014 05:18 16,0 C 14,4 C 96 % 1024,4 hPa 0,0 l/m 0 min 2 min 0,0 UV-I 0 W/m 6,3 km/h (2 Bft)
11.06.2014 05:20 16,0 C 14,4 C 96 % 1024,3 hPa 0,0 l/m 0 min 2 min 0,0 UV-I 0 W/m 0,0 km/h (0 Bft)
11.06.2014 05:22 15,9 C 14,4 C 96 % 1024,3 hPa 0,0 l/m 0 min 2 min 0,0 UV-I 0 W/m 0,0 km/h (0 Bft)
11.06.2014 05:24 15,9 C 14,4 C 96 % 1024,3 hPa 0,0 l/m 0 min 2 min 0,0 UV-I 0 W/m 0,0 km/h (0 Bft)
11.06.2014 05:26 15,9 C 14,4 C 96 % 1024,3 hPa 0,0 l/m 0 min 2 min 0,0 UV-I 0 W/m 0,0 km/h (0 Bft)
11.06.2014 05:28 15,8 C 14,4 C 96 % 1024,1 hPa 0,2 l/m 0 min 2 min 0,0 UV-I 0 W/m 0,0 km/h (0 Bft)
11.06.2014 05:30 15,8 C 14,4 C 96 % 1024,0 hPa 0,0 l/m 0 min 2 min 0,0 UV-I 0 W/m 0,0 km/h (0 Bft)
11.06.2014 05:32 15,7 C 14,4 C 96 % 1023,9 hPa 0,0 l/m 0 min 2 min 0,0 UV-I 0 W/m 0,0 km/h (0 Bft)
11.06.2014 05:34 15,8 C 14,4 C 96 % 1023,8 hPa 0,2 l/m 0 min 2 min 0,0 UV-I 0 W/m 0,0 km/h (0 Bft)
11.06.2014 05:36 15,7 C 14,4 C 96 % 1023,8 hPa 0,0 l/m 0 min 2 min 0,0 UV-I 0 W/m 0,0 km/h (0 Bft)
11.06.2014 05:38 15,8 C 14,4 C 96 % 1023,8 hPa 0,0 l/m 0 min 2 min 0,0 UV-I 0 W/m 0,0 km/h (0 Bft)
11.06.2014 05:40 15,8 C 14,4 C 96 % 1023,8 hPa 0,0 l/m 0 min 2 min 0,0 UV-I 0 W/m 0,0 km/h (0 Bft)
11.06.2014 05:42 15,9 C 14,4 C 96 % 1023,8 hPa 0,0 l/m 0 min 2 min 0,0 UV-I 0 W/m 0,0 km/h (0 Bft)
11.06.2014 05:44 15,9 C 14,4 C 96 % 1023,8 hPa 0,2 l/m 0 min 2 min 0,0 UV-I 0 W/m 0,0 km/h (0 Bft)
11.06.2014 05:46 15,8 C 14,4 C 96 % 1023,8 hPa 0,0 l/m 0 min 2 min 0,0 UV-I 0 W/m 0,0 km/h (0 Bft)
11.06.2014 05:48 15,7 C 14,4 C 96 % 1023,9 hPa 0,0 l/m 0 min 2 min 0,0 UV-I 0 W/m 0,0 km/h (0 Bft)
11.06.2014 05:50 15,7 C 14,4 C 96 % 1024,0 hPa 0,2 l/m 0 min 2 min 0,0 UV-I 0 W/m 0,0 km/h (0 Bft)
11.06.2014 05:52 15,7 C 14,4 C 96 % 1023,9 hPa 0,0 l/m 0 min 2 min 0,0 UV-I 0 W/m 0,0 km/h (0 Bft)
11.06.2014 05:54 15,7 C 14,4 C 96 % 1023,9 hPa 0,0 l/m 0 min 2 min 0,0 UV-I 0 W/m 0,0 km/h (0 Bft)
11.06.2014 05:56 15,7 C 14,4 C 96 % 1023,9 hPa 0,0 l/m 0 min 2 min 0,0 UV-I 0 W/m 0,0 km/h (0 Bft)
11.06.2014 05:58 15,7 C 14,4 C 96 % 1023,9 hPa 0,0 l/m 0 min 2 min 0,0 UV-I 0 W/m 0,0 km/h (0 Bft)
11.06.2014 06:00 15,7 C 14,4 C 97 % 1024,0 hPa 0,0 l/m 0 min 2 min 0,0 UV-I 0 W/m 0,0 km/h (0 Bft)
11.06.2014 06:02 15,7 C 14,4 C 97 % 1024,0 hPa 0,0 l/m 0 min 2 min 0,0 UV-I 0 W/m 2,1 km/h (1 Bft)
11.06.2014 06:06 15,8 C 14,4 C 97 % 1024,0 hPa 0,0 l/m 0 min 2 min 0,0 UV-I 5 W/m 2,1 km/h (1 Bft)
11.06.2014 06:08 15,7 C 14,4 C 97 % 1023,9 hPa 0,0 l/m 0 min 2 min 0,0 UV-I 5 W/m 0,0 km/h (0 Bft)
11.06.2014 06:10 15,7 C 14,4 C 97 % 1023,9 hPa 0,0 l/m 0 min 2 min 0,0 UV-I 5 W/m 2,1 km/h (1 Bft)
11.06.2014 06:12 15,7 C 14,4 C 97 % 1023,9 hPa 0,0 l/m 0 min 2 min 0,0 UV-I 7 W/m 8,4 km/h (2 Bft)
11.06.2014 06:14 15,7 C 14,4 C 97 % 1023,9 hPa 0,0 l/m 0 min 2 min 0,0 UV-I 7 W/m 2,1 km/h (1 Bft)
11.06.2014 06:16 15,7 C 14,4 C 97 % 1023,9 hPa 0,2 l/m 0 min 2 min 0,0 UV-I 7 W/m 10,5 km/h (2 Bft)
11.06.2014 06:18 15,7 C 14,4 C 97 % 1024,1 hPa 0,0 l/m 0 min 2 min 0,0 UV-I 7 W/m 10,5 km/h (2 Bft)
11.06.2014 06:20 15,7 C 14,4 C 97 % 1024,0 hPa 0,0 l/m 0 min 2 min 0,0 UV-I 9 W/m 10,5 km/h (2 Bft)
11.06.2014 06:22 15,8 C 15,0 C 97 % 1024,0 hPa 0,0 l/m 0 min 2 min 0,0 UV-I 9 W/m 10,5 km/h (2 Bft)
11.06.2014 06:24 15,7 C 14,4 C 97 % 1024,0 hPa 0,0 l/m 0 min 2 min 0,0 UV-I 9 W/m 12,6 km/h (3 Bft)
11.06.2014 06:26 15,7 C 15,0 C 97 % 1024,0 hPa 0,0 l/m 0 min 2 min 0,0 UV-I 9 W/m 8,4 km/h (2 Bft)
11.06.2014 06:28 15,7 C 15,0 C 97 % 1024,0 hPa 0,0 l/m 0 min 2 min 0,0 UV-I 9 W/m 14,6 km/h (3 Bft)
11.06.2014 06:30 15,6 C 14,4 C 97 % 1024,0 hPa 0,0 l/m 0 min 2 min 0,0 UV-I 11 W/m 16,7 km/h (3 Bft)
11.06.2014 06:32 15,6 C 14,4 C 97 % 1024,0 hPa 0,0 l/m 0 min 2 min 0,0 UV-I 11 W/m 10,5 km/h (2 Bft)
11.06.2014 06:34 15,5 C 14,4 C 97 % 1023,9 hPa 0,0 l/m 0 min 2 min 0,0 UV-I 11 W/m 8,4 km/h (2 Bft)
11.06.2014 06:36 15,4 C 13,9 C 97 % 1023,9 hPa 0,0 l/m 0 min 2 min 0,0 UV-I 11 W/m 8,4 km/h (2 Bft)
11.06.2014 06:38 15,4 C 14,4 C 97 % 1023,9 hPa 0,0 l/m 0 min 2 min 0,0 UV-I 11 W/m 6,3 km/h (2 Bft)
11.06.2014 06:40 15,4 C 14,4 C 97 % 1023,9 hPa 0,0 l/m 0 min 2 min 0,0 UV-I 12 W/m 8,4 km/h (2 Bft)
11.06.2014 06:42 15,4 C 14,4 C 97 % 1023,8 hPa 0,0 l/m 0 min 2 min 0,0 UV-I 12 W/m 10,5 km/h (2 Bft)
11.06.2014 06:44 15,5 C 14,4 C 97 % 1023,8 hPa 0,2 l/m 0 min 2 min 0,0 UV-I 12 W/m 10,5 km/h (2 Bft)
11.06.2014 06:46 15,5 C 14,4 C 97 % 1023,8 hPa 0,0 l/m 0 min 2 min 0,0 UV-I 12 W/m 8,4 km/h (2 Bft)
11.06.2014 06:48 15,5 C 14,4 C 97 % 1023,9 hPa 0,0 l/m 0 min 2 min 0,0 UV-I 12 W/m 8,4 km/h (2 Bft)
11.06.2014 06:50 15,4 C 14,4 C 97 % 1023,9 hPa 0,0 l/m 0 min 2 min 0,0 UV-I 12 W/m 6,3 km/h (2 Bft)
11.06.2014 06:52 15,4 C 14,4 C 97 % 1024,0 hPa 0,0 l/m 0 min 2 min 0,0 UV-I 12 W/m 8,4 km/h (2 Bft)
11.06.2014 06:54 15,2 C 13,9 C 97 % 1023,9 hPa 0,0 l/m 0 min 2 min 0,0 UV-I 12 W/m 6,3 km/h (2 Bft)
11.06.2014 06:56 15,1 C 13,9 C 97 % 1023,9 hPa 0,0 l/m 0 min 2 min 0,0 UV-I 14 W/m 2,1 km/h (1 Bft)
11.06.2014 06:58 15,1 C 13,9 C 97 % 1023,8 hPa 0,2 l/m 0 min 2 min 0,0 UV-I 16 W/m 10,5 km/h (2 Bft)
11.06.2014 07:00 15,0 C 13,3 C 97 % 1023,8 hPa 0,0 l/m 0 min 2 min 0,0 UV-I 18 W/m 8,4 km/h (2 Bft)
11.06.2014 07:02 14,9 C 13,3 C 97 % 1023,7 hPa 0,2 l/m 0 min 2 min 0,0 UV-I 19 W/m 14,6 km/h (3 Bft)
11.06.2014 07:06 14,9 C 13,3 C 96 % 1023,5 hPa 0,0 l/m 0 min 2 min 0,0 UV-I 23 W/m 14,6 km/h (3 Bft)
11.06.2014 07:08 14,9 C 13,3 C 96 % 1023,5 hPa 0,0 l/m 0 min 2 min 0,0 UV-I 25 W/m 8,4 km/h (2 Bft)
11.06.2014 07:10 14,9 C 13,3 C 96 % 1023,5 hPa 0,0 l/m 0 min 2 min 0,0 UV-I 26 W/m 12,6 km/h (3 Bft)
11.06.2014 07:12 14,8 C 13,3 C 96 % 1023,5 hPa 0,0 l/m 0 min 2 min 0,0 UV-I 32 W/m 16,7 km/h (3 Bft)
11.06.2014 07:14 14,8 C 13,3 C 96 % 1023,4 hPa 0,0 l/m 0 min 2 min 0,0 UV-I 35 W/m 14,6 km/h (3 Bft)
11.06.2014 07:16 14,8 C 13,3 C 96 % 1023,4 hPa 0,2 l/m 0 min 2 min 0,0 UV-I 37 W/m 12,6 km/h (3 Bft)
11.06.2014 07:18 14,8 C 13,3 C 96 % 1023,5 hPa 0,0 l/m 0 min 2 min 0,0 UV-I 39 W/m 10,5 km/h (2 Bft)
11.06.2014 07:20 14,9 C 13,9 C 96 % 1023,7 hPa 0,0 l/m 0 min 2 min 0,0 UV-I 40 W/m 2,1 km/h (1 Bft)
11.06.2014 07:22 15,0 C 13,9 C 96 % 1023,8 hPa 0,0 l/m 0 min 2 min 0,0 UV-I 42 W/m 8,4 km/h (2 Bft)
11.06.2014 07:24 15,0 C 13,9 C 96 % 1023,9 hPa 0,0 l/m 0 min 2 min 0,0 UV-I 47 W/m 8,4 km/h (2 Bft)
11.06.2014 07:26 15,0 C 13,9 C 96 % 1024,0 hPa 0,0 l/m 0 min 2 min 0,0 UV-I 49 W/m 8,4 km/h (2 Bft)
11.06.2014 07:28 14,9 C 13,9 C 96 % 1024,1 hPa 0,2 l/m 0 min 2 min 0,0 UV-I 47 W/m 2,1 km/h (1 Bft)
11.06.2014 07:30 14,8 C 13,9 C 96 % 1024,2 hPa 0,0 l/m 0 min 2 min 0,0 UV-I 46 W/m 6,3 km/h (2 Bft)
11.06.2014 07:32 14,8 C 13,9 C 97 % 1024,2 hPa 0,0 l/m 0 min 2 min 0,0 UV-I 47 W/m 10,5 km/h (2 Bft)
11.06.2014 07:34 14,8 C 13,9 C 97 % 1024,2 hPa 0,0 l/m 0 min 2 min 0,0 UV-I 42 W/m 10,5 km/h (2 Bft)
11.06.2014 07:36 14,7 C 13,9 C 97 % 1024,3 hPa 0,0 l/m 0 min 2 min 0,0 UV-I 40 W/m 14,6 km/h (3 Bft)
11.06.2014 07:38 14,6 C 13,9 C 96 % 1024,2 hPa 0,0 l/m 0 min 2 min 0,0 UV-I 42 W/m 10,5 km/h (2 Bft)
11.06.2014 07:40 14,5 C 13,9 C 96 % 1024,2 hPa 0,0 l/m 0 min 2 min 0,0 UV-I 49 W/m 10,5 km/h (2 Bft)
11.06.2014 07:42 14,5 C 13,9 C 97 % 1024,2 hPa 0,0 l/m 0 min 2 min 0,0 UV-I 49 W/m 10,5 km/h (2 Bft)
11.06.2014 07:44 14,6 C 13,9 C 97 % 1024,2 hPa 0,0 l/m 0 min 2 min 0,0 UV-I 46 W/m 6,3 km/h (2 Bft)
11.06.2014 07:46 14,5 C 13,9 C 97 % 1024,2 hPa 0,0 l/m 0 min 2 min 0,0 UV-I 44 W/m 8,4 km/h (2 Bft)
11.06.2014 07:48 14,6 C 13,9 C 97 % 1024,2 hPa 0,0 l/m 0 min 2 min 0,0 UV-I 49 W/m 6,3 km/h (2 Bft)
11.06.2014 07:50 14,6 C 13,9 C 97 % 1024,2 hPa 0,0 l/m 0 min 2 min 0,0 UV-I 56 W/m 6,3 km/h (2 Bft)
11.06.2014 07:52 14,5 C 13,9 C 97 % 1024,2 hPa 0,0 l/m 0 min 2 min 0,0 UV-I 69 W/m 6,3 km/h (2 Bft)
11.06.2014 07:54 14,4 C 13,9 C 97 % 1024,2 hPa 0,0 l/m 0 min 2 min 0,0 UV-I 70 W/m 6,3 km/h (2 Bft)
11.06.2014 07:56 14,4 C 13,9 C 97 % 1024,2 hPa 0,0 l/m 0 min 0 min 0,0 UV-I 70 W/m 2,1 km/h (1 Bft)
11.06.2014 07:58 14,4 C 13,3 C 97 % 1024,2 hPa 0,0 l/m 0 min 0 min 0,0 UV-I 69 W/m 2,1 km/h (1 Bft)
11.06.2014 08:00 14,5 C 13,9 C 97 % 1024,2 hPa 0,0 l/m 0 min 0 min 0,0 UV-I 63 W/m 2,1 km/h (1 Bft)
11.06.2014 08:02 14,5 C 13,9 C 97 % 1024,2 hPa 0,0 l/m 0 min 0 min 0,0 UV-I 69 W/m 0,0 km/h (0 Bft)
11.06.2014 08:06 14,4 C 13,9 C 97 % 1023,9 hPa 0,0 l/m 0 min 0 min 0,0 UV-I 123 W/m 6,3 km/h (2 Bft)
11.06.2014 08:08 14,4 C 13,9 C 97 % 1023,6 hPa 0,0 l/m 0 min 0 min 0,0 UV-I 141 W/m 6,3 km/h (2 Bft)
11.06.2014 08:10 14,4 C 13,3 C 97 % 1023,7 hPa 0,0 l/m 0 min 0 min 0,0 UV-I 97 W/m 6,3 km/h (2 Bft)
11.06.2014 08:12 14,4 C 13,9 C 97 % 1023,7 hPa 0,0 l/m 0 min 0 min 0,0 UV-I 77 W/m 8,4 km/h (2 Bft)
11.06.2014 08:14 14,6 C 13,9 C 96 % 1023,7 hPa 0,0 l/m 0 min 0 min 0,0 UV-I 77 W/m 10,5 km/h (2 Bft)
11.06.2014 08:16 14,6 C 13,9 C 96 % 1023,6 hPa 0,0 l/m 0 min 0 min 0,0 UV-I 90 W/m 6,3 km/h (2 Bft)
11.06.2014 08:18 14,7 C 13,3 C 96 % 1023,6 hPa 0,0 l/m 0 min 0 min 0,0 UV-I 86 W/m 12,6 km/h (3 Bft)
11.06.2014 08:20 14,7 C 13,9 C 96 % 1023,7 hPa 0,0 l/m 0 min 0 min 0,0 UV-I 79 W/m 6,3 km/h (2 Bft)
11.06.2014 08:22 14,7 C 13,9 C 96 % 1023,8 hPa 0,0 l/m 0 min 0 min 0,0 UV-I 76 W/m 8,4 km/h (2 Bft)
11.06.2014 08:24 14,8 C 13,9 C 96 % 1023,9 hPa 0,0 l/m 0 min 0 min 0,0 UV-I 83 W/m 8,4 km/h (2 Bft)
11.06.2014 08:26 14,7 C 13,9 C 96 % 1023,8 hPa 0,0 l/m 0 min 0 min 0,0 UV-I 95 W/m 14,6 km/h (3 Bft)
11.06.2014 08:28 14,7 C 13,9 C 96 % 1023,6 hPa 0,0 l/m 0 min 0 min 0,0 UV-I 123 W/m 18,8 km/h (3 Bft)
11.06.2014 08:30 14,7 C 13,9 C 95 % 1023,5 hPa 0,0 l/m 0 min 0 min 0,0 UV-I 120 W/m 4,2 km/h (1 Bft)
11.06.2014 08:32 14,8 C 13,9 C 95 % 1023,7 hPa 0,0 l/m 0 min 0 min 0,0 UV-I 93 W/m 8,4 km/h (2 Bft)
11.06.2014 08:34 14,9 C 13,9 C 95 % 1023,9 hPa 0,0 l/m 0 min 0 min 0,0 UV-I 74 W/m 0,0 km/h (0 Bft)
11.06.2014 08:36 14,9 C 13,9 C 95 % 1024,1 hPa 0,0 l/m 0 min 0 min 0,0 UV-I 74 W/m 0,0 km/h (0 Bft)
11.06.2014 08:38 14,9 C 13,9 C 95 % 1024,1 hPa 0,0 l/m 0 min 0 min 0,0 UV-I 77 W/m 0,0 km/h (0 Bft)
11.06.2014 08:40 15,0 C 13,9 C 95 % 1024,2 hPa 0,0 l/m 0 min 0 min 0,0 UV-I 83 W/m 0,0 km/h (0 Bft)
11.06.2014 08:42 15,0 C 13,9 C 95 % 1024,2 hPa 0,0 l/m 0 min 0 min 0,0 UV-I 83 W/m 0,0 km/h (0 Bft)
11.06.2014 08:44 15,1 C 14,4 C 95 % 1024,2 hPa 0,0 l/m 0 min 0 min 0,0 UV-I 81 W/m 0,0 km/h (0 Bft)
11.06.2014 08:46 15,1 C 14,4 C 95 % 1024,3 hPa 0,0 l/m 0 min 0 min 0,0 UV-I 100 W/m 0,0 km/h (0 Bft)
11.06.2014 08:48 15,1 C 14,4 C 95 % 1024,4 hPa 0,0 l/m 0 min 0 min 0,0 UV-I 127 W/m 2,1 km/h (1 Bft)
11.06.2014 08:50 15,2 C 14,4 C 95 % 1024,6 hPa 0,0 l/m 0 min 0 min 0,0 UV-I 156 W/m 0,0 km/h (0 Bft)
11.06.2014 08:52 15,3 C 15,0 C 96 % 1024,7 hPa 0,0 l/m 0 min 0 min 0,0 UV-I 160 W/m 0,0 km/h (0 Bft)
11.06.2014 08:54 15,3 C 15,0 C 96 % 1024,7 hPa 0,0 l/m 0 min 0 min 0,0 UV-I 142 W/m 0,0 km/h (0 Bft)
11.06.2014 08:56 15,3 C 15,0 C 96 % 1024,9 hPa 0,0 l/m 0 min 0 min 0,0 UV-I 111 W/m 0,0 km/h (0 Bft)
11.06.2014 08:58 15,2 C 15,0 C 95 % 1024,8 hPa 0,0 l/m 0 min 0 min 0,0 UV-I 86 W/m 0,0 km/h (0 Bft)
11.06.2014 09:00 15,2 C 15,0 C 95 % 1024,8 hPa 0,0 l/m 0 min 0 min 0,0 UV-I 70 W/m 2,1 km/h (1 Bft)
11.06.2014 09:02 15,3 C 14,4 C 95 % 1024,9 hPa 0,0 l/m 0 min 0 min 0,0 UV-I 60 W/m 6,3 km/h (2 Bft)
11.06.2014 09:06 15,3 C 14,4 C 95 % 1024,9 hPa 0,0 l/m 0 min 0 min 0,0 UV-I 49 W/m 6,3 km/h (2 Bft)
11.06.2014 09:08 15,3 C 14,4 C 95 % 1024,9 hPa 0,0 l/m 0 min 0 min 0,0 UV-I 44 W/m 0,0 km/h (0 Bft)
11.06.2014 09:10 15,2 C 14,4 C 95 % 1024,9 hPa 0,0 l/m 0 min 0 min 0,0 UV-I 46 W/m 0,0 km/h (0 Bft)
11.06.2014 09:12 15,2 C 14,4 C 95 % 1025,0 hPa 0,0 l/m 0 min 0 min 0,0 UV-I 47 W/m 0,0 km/h (0 Bft)
11.06.2014 09:14 15,2 C 14,4 C 95 % 1024,9 hPa 0,0 l/m 0 min 0 min 0,0 UV-I 58 W/m 0,0 km/h (0 Bft)
11.06.2014 09:16 15,3 C 14,4 C 95 % 1025,0 hPa 0,0 l/m 0 min 0 min 0,0 UV-I 58 W/m 0,0 km/h (0 Bft)
11.06.2014 09:18 15,2 C 14,4 C 95 % 1025,0 hPa 0,0 l/m 0 min 0 min 0,0 UV-I 58 W/m 0,0 km/h (0 Bft)
11.06.2014 09:20 15,1 C 14,4 C 95 % 1025,0 hPa 0,0 l/m 0 min 0 min 0,0 UV-I 69 W/m 0,0 km/h (0 Bft)
11.06.2014 09:22 15,1 C 14,4 C 95 % 1024,9 hPa 0,0 l/m 0 min 0 min 0,0 UV-I 76 W/m 0,0 km/h (0 Bft)
11.06.2014 09:24 15,1 C 14,4 C 94 % 1024,9 hPa 0,0 l/m 0 min 0 min 0,0 UV-I 76 W/m 0,0 km/h (0 Bft)
11.06.2014 09:26 15,1 C 14,4 C 94 % 1024,9 hPa 0,0 l/m 0 min 0 min 0,0 UV-I 72 W/m 0,0 km/h (0 Bft)
11.06.2014 09:28 15,1 C 14,4 C 94 % 1024,9 hPa 0,0 l/m 0 min 0 min 0,0 UV-I 76 W/m 0,0 km/h (0 Bft)
11.06.2014 09:30 15,2 C 14,4 C 93 % 1024,9 hPa 0,0 l/m 0 min 0 min 0,0 UV-I 90 W/m 0,0 km/h (0 Bft)
11.06.2014 09:32 15,3 C 14,4 C 93 % 1024,9 hPa 0,0 l/m 0 min 0 min 0,0 UV-I 121 W/m 2,1 km/h (1 Bft)
11.06.2014 09:34 15,3 C 14,4 C 93 % 1024,8 hPa 0,0 l/m 0 min 0 min 0,0 UV-I 134 W/m 0,0 km/h (0 Bft)
11.06.2014 09:36 15,4 C 14,4 C 93 % 1024,9 hPa 0,0 l/m 0 min 0 min 0,0 UV-I 153 W/m 0,0 km/h (0 Bft)
11.06.2014 09:38 15,4 C 14,4 C 93 % 1024,9 hPa 0,0 l/m 0 min 0 min 0,0 UV-I 158 W/m 0,0 km/h (0 Bft)
11.06.2014 09:40 15,7 C 15,0 C 93 % 1024,9 hPa 0,0 l/m 0 min 0 min 0,0 UV-I 137 W/m 0,0 km/h (0 Bft)
11.06.2014 09:42 15,5 C 15,0 C 93 % 1024,9 hPa 0,0 l/m 0 min 0 min 0,0 UV-I 151 W/m 0,0 km/h (0 Bft)
11.06.2014 09:44 15,6 C 15,0 C 92 % 1024,9 hPa 0,0 l/m 0 min 0 min 0,0 UV-I 192 W/m 0,0 km/h (0 Bft)
11.06.2014 09:46 15,6 C 15,0 C 92 % 1024,9 hPa 0,0 l/m 0 min 0 min 0,0 UV-I 185 W/m 0,0 km/h (0 Bft)
11.06.2014 09:48 15,7 C 15,0 C 93 % 1024,9 hPa 0,0 l/m 0 min 0 min 0,0 UV-I 195 W/m 0,0 km/h (0 Bft)
11.06.2014 09:50 15,7 C 15,0 C 92 % 1024,9 hPa 0,0 l/m 0 min 0 min 0,0 UV-I 167 W/m 0,0 km/h (0 Bft)
11.06.2014 09:52 15,8 C 15,0 C 92 % 1024,9 hPa 0,0 l/m 0 min 0 min 0,0 UV-I 148 W/m 0,0 km/h (0 Bft)
11.06.2014 09:54 15,8 C 15,0 C 91 % 1024,8 hPa 0,0 l/m 0 min 0 min 0,0 UV-I 142 W/m 0,0 km/h (0 Bft)
11.06.2014 09:56 15,8 C 15,0 C 90 % 1024,8 hPa 0,0 l/m 0 min 0 min 0,0 UV-I 142 W/m 0,0 km/h (0 Bft)
11.06.2014 09:58 15,8 C 15,0 C 90 % 1024,8 hPa 0,0 l/m 0 min 0 min 0,0 UV-I 142 W/m 0,0 km/h (0 Bft)
11.06.2014 10:00 15,8 C 15,0 C 90 % 1024,9 hPa 0,0 l/m 0 min 0 min 0,0 UV-I 144 W/m 0,0 km/h (0 Bft)
11.06.2014 10:02 16,0 C 15,0 C 91 % 1024,8 hPa 0,0 l/m 0 min 0 min 0,0 UV-I 181 W/m 0,0 km/h (0 Bft)
11.06.2014 10:06 16,1 C 15,6 C 92 % 1024,8 hPa 0,0 l/m 0 min 0 min 0,0 UV-I 221 W/m 0,0 km/h (0 Bft)
11.06.2014 10:08 16,0 C 15,6 C 92 % 1024,8 hPa 0,0 l/m 0 min 0 min 0,0 UV-I 199 W/m 0,0 km/h (0 Bft)
11.06.2014 10:10 16,2 C 15,6 C 92 % 1024,8 hPa 0,0 l/m 0 min 0 min 0,0 UV-I 186 W/m 0,0 km/h (0 Bft)
11.06.2014 10:12 16,2 C 15,6 C 92 % 1024,8 hPa 0,0 l/m 0 min 0 min 0,0 UV-I 204 W/m 0,0 km/h (0 Bft)
11.06.2014 10:14 16,3 C 16,1 C 92 % 1024,8 hPa 0,0 l/m 0 min 0 min 0,0 UV-I 230 W/m 0,0 km/h (0 Bft)
11.06.2014 10:16 16,3 C 16,1 C 91 % 1024,9 hPa 0,0 l/m 0 min 0 min 0,0 UV-I 243 W/m 2,1 km/h (1 Bft)
11.06.2014 10:18 16,5 C 16,1 C 92 % 1024,9 hPa 0,0 l/m 0 min 0 min 0,0 UV-I 246 W/m 0,0 km/h (0 Bft)
11.06.2014 10:20 16,5 C 16,1 C 92 % 1024,9 hPa 0,0 l/m 0 min 0 min 0,0 UV-I 251 W/m 0,0 km/h (0 Bft)
11.06.2014 10:22 16,8 C 16,1 C 92 % 1024,8 hPa 0,0 l/m 0 min 0 min 0,6 UV-I 285 W/m 0,0 km/h (0 Bft)
11.06.2014 10:24 16,9 C 16,7 C 92 % 1024,9 hPa 0,0 l/m 2 min 0 min 0,8 UV-I 357 W/m 8,4 km/h (2 Bft)
11.06.2014 10:26 17,1 C 16,7 C 92 % 1024,8 hPa 0,0 l/m 2 min 0 min 1,0 UV-I 418 W/m 8,4 km/h (2 Bft)
11.06.2014 10:28 16,9 C 16,7 C 90 % 1024,8 hPa 0,0 l/m 2 min 0 min 1,4 UV-I 585 W/m 6,3 km/h (2 Bft)
11.06.2014 10:30 17,1 C 17,2 C 90 % 1024,8 hPa 0,0 l/m 2 min 0 min 1,3 UV-I 504 W/m 0,0 km/h (0 Bft)
11.06.2014 10:32 17,4 C 17,8 C 91 % 1024,8 hPa 0,0 l/m 2 min 0 min 1,3 UV-I 570 W/m 0,0 km/h (0 Bft)
11.06.2014 10:34 17,5 C 17,8 C 90 % 1024,7 hPa 0,0 l/m 2 min 0 min 1,2 UV-I 499 W/m 2,1 km/h (1 Bft)
11.06.2014 10:36 17,5 C 17,8 C 89 % 1024,8 hPa 0,0 l/m 2 min 0 min 1,1 UV-I 429 W/m 2,1 km/h (1 Bft)
11.06.2014 10:38 17,4 C 17,2 C 89 % 1024,8 hPa 0,0 l/m 2 min 0 min 1,1 UV-I 441 W/m 0,0 km/h (0 Bft)
11.06.2014 10:40 17,7 C 17,8 C 90 % 1024,8 hPa 0,0 l/m 2 min 0 min 1,3 UV-I 541 W/m 10,5 km/h (2 Bft)
11.06.2014 10:42 17,6 C 17,2 C 88 % 1024,8 hPa 0,0 l/m 2 min 0 min 1,4 UV-I 577 W/m 10,5 km/h (2 Bft)
11.06.2014 10:44 17,4 C 17,2 C 87 % 1024,8 hPa 0,0 l/m 2 min 0 min 1,7 UV-I 554 W/m 12,6 km/h (3 Bft)
11.06.2014 10:46 17,6 C 17,8 C 88 % 1024,8 hPa 0,0 l/m 2 min 0 min 1,5 UV-I 575 W/m 12,6 km/h (3 Bft)
11.06.2014 10:48 18,0 C 18,3 C 90 % 1024,8 hPa 0,0 l/m 2 min 0 min 1,4 UV-I 626 W/m 14,6 km/h (3 Bft)
11.06.2014 10:50 18,3 C 18,3 C 88 % 1024,8 hPa 0,0 l/m 2 min 0 min 1,7 UV-I 548 W/m 0,0 km/h (0 Bft)
11.06.2014 10:52 18,6 C 18,9 C 89 % 1024,8 hPa 0,0 l/m 2 min 0 min 1,6 UV-I 566 W/m 8,4 km/h (2 Bft)
11.06.2014 10:54 18,8 C 18,9 C 89 % 1024,9 hPa 0,0 l/m 2 min 0 min 1,9 UV-I 571 W/m 10,5 km/h (2 Bft)
11.06.2014 10:56 18,9 C 19,4 C 87 % 1024,8 hPa 0,0 l/m 2 min 0 min 1,4 UV-I 519 W/m 8,4 km/h (2 Bft)
11.06.2014 10:58 19,1 C 19,4 C 88 % 1024,9 hPa 0,0 l/m 2 min 0 min 1,1 UV-I 408 W/m 10,5 km/h (2 Bft)
11.06.2014 11:00 18,9 C 18,9 C 86 % 1024,9 hPa 0,0 l/m 2 min 0 min 1,0 UV-I 388 W/m 10,5 km/h (2 Bft)
11.06.2014 11:02 18,7 C 18,9 C 85 % 1024,9 hPa 0,0 l/m 0 min 0 min 0,9 UV-I 353 W/m 8,4 km/h (2 Bft)
11.06.2014 11:06 18,6 C 18,3 C 85 % 1025,0 hPa 0,0 l/m 0 min 0 min 1,0 UV-I 341 W/m 10,5 km/h (2 Bft)
11.06.2014 11:08 18,6 C 18,3 C 86 % 1025,0 hPa 0,0 l/m 0 min 0 min 0,9 UV-I 318 W/m 14,6 km/h (3 Bft)
11.06.2014 11:10 18,6 C 18,3 C 85 % 1025,0 hPa 0,0 l/m 0 min 0 min 1,0 UV-I 306 W/m 16,7 km/h (3 Bft)
11.06.2014 11:12 18,4 C 18,3 C 84 % 1025,0 hPa 0,0 l/m 2 min 0 min 1,1 UV-I 374 W/m 12,6 km/h (3 Bft)
11.06.2014 11:14 18,6 C 18,3 C 86 % 1025,1 hPa 0,0 l/m 0 min 0 min 0,8 UV-I 341 W/m 12,6 km/h (3 Bft)
11.06.2014 11:16 18,6 C 18,3 C 86 % 1025,1 hPa 0,0 l/m 0 min 0 min 0,9 UV-I 339 W/m 10,5 km/h (2 Bft)
11.06.2014 11:18 18,6 C 18,9 C 84 % 1025,1 hPa 0,0 l/m 2 min 0 min 1,3 UV-I 434 W/m 14,6 km/h (3 Bft)
11.06.2014 11:20 18,7 C 18,9 C 86 % 1025,1 hPa 0,0 l/m 2 min 0 min 1,3 UV-I 461 W/m 12,6 km/h (3 Bft)
11.06.2014 11:22 18,8 C 18,9 C 84 % 1025,1 hPa 0,0 l/m 2 min 0 min 1,1 UV-I 413 W/m 12,6 km/h (3 Bft)
11.06.2014 11:24 18,8 C 18,9 C 84 % 1025,1 hPa 0,0 l/m 2 min 0 min 1,3 UV-I 431 W/m 10,5 km/h (2 Bft)
11.06.2014 11:26 18,9 C 18,9 C 82 % 1025,1 hPa 0,0 l/m 2 min 0 min 1,2 UV-I 415 W/m 10,5 km/h (2 Bft)
11.06.2014 11:28 18,8 C 18,9 C 83 % 1025,1 hPa 0,0 l/m 2 min 0 min 1,1 UV-I 387 W/m 16,7 km/h (3 Bft)
11.06.2014 11:30 18,8 C 18,9 C 82 % 1025,2 hPa 0,0 l/m 2 min 0 min 1,2 UV-I 388 W/m 12,6 km/h (3 Bft)
11.06.2014 11:32 18,8 C 18,9 C 82 % 1025,1 hPa 0,0 l/m 0 min 0 min 1,1 UV-I 378 W/m 10,5 km/h (2 Bft)
11.06.2014 11:34 18,8 C 18,9 C 81 % 1025,2 hPa 0,0 l/m 2 min 0 min 1,2 UV-I 404 W/m 14,6 km/h (3 Bft)
11.06.2014 11:36 18,8 C 18,9 C 81 % 1025,3 hPa 0,0 l/m 2 min 0 min 1,5 UV-I 457 W/m 12,6 km/h (3 Bft)
11.06.2014 11:38 18,8 C 19,4 C 80 % 1025,2 hPa 0,0 l/m 2 min 0 min 1,7 UV-I 585 W/m 10,5 km/h (2 Bft)
11.06.2014 11:40 18,8 C 19,4 C 81 % 1025,2 hPa 0,0 l/m 2 min 0 min 1,6 UV-I 510 W/m 14,6 km/h (3 Bft)
11.06.2014 11:42 18,9 C 20,0 C 81 % 1025,2 hPa 0,0 l/m 2 min 0 min 2,2 UV-I 689 W/m 14,6 km/h (3 Bft)
11.06.2014 11:44 19,1 C 20,0 C 81 % 1025,2 hPa 0,0 l/m 2 min 0 min 1,7 UV-I 540 W/m 10,5 km/h (2 Bft)
11.06.2014 11:46 19,2 C 20,0 C 80 % 1025,2 hPa 0,0 l/m 2 min 0 min 1,5 UV-I 432 W/m 14,6 km/h (3 Bft)
11.06.2014 11:48 19,4 C 20,0 C 82 % 1025,2 hPa 0,0 l/m 0 min 0 min 1,2 UV-I 387 W/m 12,6 km/h (3 Bft)
11.06.2014 11:50 19,2 C 19,4 C 79 % 1025,2 hPa 0,0 l/m 2 min 0 min 1,3 UV-I 401 W/m 16,7 km/h (3 Bft)
11.06.2014 11:52 19,0 C 19,4 C 78 % 1025,2 hPa 0,0 l/m 2 min 0 min 1,6 UV-I 454 W/m 14,6 km/h (3 Bft)
11.06.2014 11:54 18,9 C 19,4 C 78 % 1025,2 hPa 0,0 l/m 2 min 0 min 1,4 UV-I 438 W/m 10,5 km/h (2 Bft)
11.06.2014 11:56 19,0 C 19,4 C 82 % 1025,2 hPa 0,0 l/m 2 min 0 min 1,4 UV-I 434 W/m 12,6 km/h (3 Bft)
11.06.2014 11:58 19,1 C 19,4 C 83 % 1025,2 hPa 0,0 l/m 2 min 0 min 1,8 UV-I 510 W/m 12,6 km/h (3 Bft)
11.06.2014 12:00 19,2 C 20,0 C 82 % 1025,2 hPa 0,0 l/m 2 min 0 min 1,6 UV-I 466 W/m 14,6 km/h (3 Bft)
11.06.2014 12:02 19,2 C 19,4 C 80 % 1025,2 hPa 0,0 l/m 2 min 0 min 1,6 UV-I 436 W/m 12,6 km/h (3 Bft)
11.06.2014 12:06 19,3 C 20,0 C 82 % 1025,3 hPa 0,0 l/m 0 min 0 min 1,6 UV-I 392 W/m 10,5 km/h (2 Bft)
11.06.2014 12:08 19,6 C 20,6 C 84 % 1025,3 hPa 0,0 l/m 0 min 0 min 2,1 UV-I 392 W/m 0,0 km/h (0 Bft)
11.06.2014 12:10 19,7 C 21,1 C 82 % 1025,2 hPa 0,0 l/m 2 min 0 min 1,8 UV-I 564 W/m 16,7 km/h (3 Bft)
11.06.2014 12:12 19,6 C 20,6 C 78 % 1025,3 hPa 0,0 l/m 2 min 0 min 2,5 UV-I 471 W/m 18,8 km/h (3 Bft)
11.06.2014 12:14 19,4 C 20,6 C 76 % 1025,2 hPa 0,0 l/m 2 min 0 min 1,7 UV-I 427 W/m 16,7 km/h (3 Bft)
11.06.2014 12:16 19,4 C 21,1 C 75 % 1025,2 hPa 0,0 l/m 2 min 0 min 2,3 UV-I 840 W/m 10,5 km/h (2 Bft)
11.06.2014 12:18 19,3 C 20,6 C 75 % 1025,2 hPa 0,0 l/m 0 min 0 min 1,5 UV-I 406 W/m 10,5 km/h (2 Bft)
11.06.2014 12:20 19,2 C 20,0 C 76 % 1025,2 hPa 0,0 l/m 2 min 0 min 1,6 UV-I 413 W/m 10,5 km/h (2 Bft)
11.06.2014 12:22 19,3 C 20,0 C 77 % 1025,3 hPa 0,0 l/m 2 min 0 min 1,8 UV-I 536 W/m 14,6 km/h (3 Bft)
11.06.2014 12:24 19,4 C 20,6 C 74 % 1025,2 hPa 0,0 l/m 2 min 0 min 1,8 UV-I 582 W/m 12,6 km/h (3 Bft)
11.06.2014 12:26 19,7 C 21,1 C 78 % 1025,2 hPa 0,0 l/m 2 min 0 min 2,3 UV-I 541 W/m 12,6 km/h (3 Bft)
11.06.2014 12:28 19,9 C 21,1 C 75 % 1025,1 hPa 0,0 l/m 2 min 0 min 1,7 UV-I 469 W/m 10,5 km/h (2 Bft)
11.06.2014 12:30 19,9 C 21,1 C 77 % 1025,1 hPa 0,0 l/m 2 min 0 min 2,0 UV-I 598 W/m 10,5 km/h (2 Bft)
11.06.2014 12:32 19,9 C 21,1 C 75 % 1025,2 hPa 0,0 l/m 2 min 0 min 2,1 UV-I 519 W/m 12,6 km/h (3 Bft)
11.06.2014 12:34 20,1 C 21,7 C 77 % 1025,1 hPa 0,0 l/m 2 min 0 min 2,5 UV-I 714 W/m 16,7 km/h (3 Bft)
11.06.2014 12:36 20,3 C 21,7 C 75 % 1025,2 hPa 0,0 l/m 2 min 0 min 2,6 UV-I 698 W/m 16,7 km/h (3 Bft)
11.06.2014 12:38 20,5 C 22,2 C 73 % 1025,2 hPa 0,0 l/m 2 min 0 min 2,5 UV-I 742 W/m 10,5 km/h (2 Bft)
11.06.2014 12:40 20,5 C 21,7 C 73 % 1025,1 hPa 0,0 l/m 2 min 0 min 1,7 UV-I 424 W/m 10,5 km/h (2 Bft)
11.06.2014 12:42 20,4 C 21,7 C 72 % 1025,2 hPa 0,0 l/m 2 min 0 min 1,9 UV-I 452 W/m 18,8 km/h (3 Bft)
11.06.2014 12:44 20,2 C 21,7 C 72 % 1025,2 hPa 0,0 l/m 2 min 0 min 3,6 UV-I 983 W/m 14,6 km/h (3 Bft)
11.06.2014 12:46 20,4 C 22,2 C 74 % 1025,2 hPa 0,0 l/m 2 min 0 min 3,4 UV-I 1027 W/m 16,7 km/h (3 Bft)
11.06.2014 12:48 20,6 C 22,8 C 72 % 1025,2 hPa 0,0 l/m 2 min 0 min 3,1 UV-I 1027 W/m 18,8 km/h (3 Bft)
11.06.2014 12:50 20,6 C 22,2 C 70 % 1025,2 hPa 0,0 l/m 2 min 0 min 1,9 UV-I 540 W/m 14,6 km/h (3 Bft)
11.06.2014 12:52 20,4 C 21,7 C 71 % 1025,2 hPa 0,0 l/m 2 min 0 min 1,9 UV-I 540 W/m 16,7 km/h (3 Bft)
11.06.2014 12:54 20,5 C 21,7 C 72 % 1025,1 hPa 0,0 l/m 2 min 0 min 2,0 UV-I 540 W/m 12,6 km/h (3 Bft)
11.06.2014 12:56 20,6 C 21,7 C 71 % 1025,2 hPa 0,0 l/m 2 min 0 min 3,2 UV-I 680 W/m 16,7 km/h (3 Bft)
11.06.2014 12:58 20,8 C 21,7 C 70 % 1025,2 hPa 0,0 l/m 0 min 0 min 1,8 UV-I 418 W/m 18,8 km/h (3 Bft)
11.06.2014 13:00 20,7 C 21,7 C 69 % 1025,2 hPa 0,0 l/m 2 min 0 min 2,4 UV-I 443 W/m 20,9 km/h (4 Bft)
11.06.2014 13:02 20,4 C 21,1 C 69 % 1025,3 hPa 0,0 l/m 2 min 0 min 3,1 UV-I 765 W/m 23,0 km/h (4 Bft)
11.06.2014 13:06 20,5 C 21,1 C 70 % 1025,2 hPa 0,0 l/m 2 min 0 min 1,9 UV-I 812 W/m 23,0 km/h (4 Bft)
11.06.2014 13:08 20,4 C 21,1 C 71 % 1025,3 hPa 0,0 l/m 2 min 0 min 1,9 UV-I 462 W/m 12,6 km/h (3 Bft)
11.06.2014 13:10 20,6 C 21,7 C 76 % 1025,4 hPa 0,0 l/m 2 min 0 min 2,0 UV-I 879 W/m 16,7 km/h (3 Bft)
11.06.2014 13:12 20,8 C 21,7 C 72 % 1025,3 hPa 0,0 l/m 2 min 0 min 2,0 UV-I 847 W/m 14,6 km/h (3 Bft)
11.06.2014 13:14 20,8 C 21,7 C 71 % 1025,3 hPa 0,0 l/m 2 min 0 min 1,9 UV-I 635 W/m 12,6 km/h (3 Bft)
11.06.2014 13:16 20,7 C 21,7 C 70 % 1025,2 hPa 0,0 l/m 2 min 0 min 3,1 UV-I 526 W/m 16,7 km/h (3 Bft)
11.06.2014 13:18 20,7 C 21,7 C 71 % 1025,2 hPa 0,0 l/m 2 min 0 min 3,1 UV-I 526 W/m 12,6 km/h (3 Bft)
11.06.2014 13:20 21,1 C 22,2 C 74 % 1025,2 hPa 0,0 l/m 2 min 0 min 3,4 UV-I 933 W/m 14,6 km/h (3 Bft)
11.06.2014 13:22 21,5 C 22,8 C 73 % 1025,2 hPa 0,0 l/m 2 min 0 min 3,5 UV-I 916 W/m 14,6 km/h (3 Bft)
11.06.2014 13:24 21,8 C 22,8 C 70 % 1025,3 hPa 0,0 l/m 2 min 0 min 3,4 UV-I 877 W/m 14,6 km/h (3 Bft)
11.06.2014 13:26 22,1 C 22,8 C 73 % 1025,3 hPa 0,0 l/m 2 min 0 min 3,3 UV-I 865 W/m 10,5 km/h (2 Bft)
11.06.2014 13:28 22,2 C 22,8 C 69 % 1025,2 hPa 0,0 l/m 2 min 0 min 3,2 UV-I 833 W/m 14,6 km/h (3 Bft)
11.06.2014 13:30 22,1 C 22,2 C 66 % 1025,2 hPa 0,0 l/m 2 min 0 min 3,4 UV-I 733 W/m 20,9 km/h (4 Bft)
11.06.2014 13:32 21,9 C 21,7 C 65 % 1025,2 hPa 0,0 l/m 2 min 0 min 2,9 UV-I 789 W/m 18,8 km/h (3 Bft)
11.06.2014 13:34 21,6 C 21,7 C 65 % 1025,2 hPa 0,0 l/m 2 min 0 min 2,8 UV-I 705 W/m 23,0 km/h (4 Bft)
11.06.2014 13:36 21,7 C 21,7 C 68 % 1025,2 hPa 0,0 l/m 2 min 0 min 2,9 UV-I 722 W/m 20,9 km/h (4 Bft)
11.06.2014 13:38 22,0 C 22,2 C 68 % 1025,3 hPa 0,0 l/m 2 min 0 min 3,1 UV-I 802 W/m 25,1 km/h (4 Bft)
11.06.2014 13:40 21,8 C 21,7 C 65 % 1025,3 hPa 0,0 l/m 2 min 0 min 3,1 UV-I 770 W/m 18,8 km/h (3 Bft)
11.06.2014 13:42 21,7 C 21,7 C 71 % 1025,3 hPa 0,0 l/m 2 min 0 min 3,2 UV-I 838 W/m 12,6 km/h (3 Bft)
11.06.2014 13:44 21,9 C 22,2 C 69 % 1025,3 hPa 0,0 l/m 2 min 0 min 3,0 UV-I 830 W/m 14,6 km/h (3 Bft)
11.06.2014 13:46 21,7 C 21,7 C 64 % 1025,3 hPa 0,0 l/m 2 min 0 min 3,2 UV-I 830 W/m 14,6 km/h (3 Bft)
11.06.2014 13:48 21,8 C 22,2 C 65 % 1025,4 hPa 0,0 l/m 2 min 0 min 3,1 UV-I 780 W/m 27,2 km/h (4 Bft)
11.06.2014 13:50 21,8 C 21,7 C 62 % 1025,4 hPa 0,0 l/m 2 min 0 min 2,9 UV-I 698 W/m 25,1 km/h (4 Bft)
11.06.2014 13:52 21,6 C 21,7 C 61 % 1025,4 hPa 0,0 l/m 2 min 0 min 3,0 UV-I 796 W/m 25,1 km/h (4 Bft)
11.06.2014 13:54 21,6 C 21,7 C 62 % 1025,4 hPa 0,0 l/m 2 min 0 min 3,3 UV-I 796 W/m 12,6 km/h (3 Bft)
11.06.2014 13:56 21,8 C 22,2 C 63 % 1025,3 hPa 0,0 l/m 2 min 0 min 2,6 UV-I 919 W/m 16,7 km/h (3 Bft)
11.06.2014 13:58 22,1 C 22,2 C 65 % 1025,3 hPa 0,0 l/m 2 min 0 min 2,2 UV-I 483 W/m 20,9 km/h (4 Bft)
11.06.2014 14:00 22,0 C 22,2 C 61 % 1025,3 hPa 0,0 l/m 2 min 0 min 2,3 UV-I 508 W/m 18,8 km/h (3 Bft)
11.06.2014 14:02 21,8 C 22,2 C 61 % 1025,4 hPa 0,0 l/m 2 min 0 min 3,4 UV-I 919 W/m 16,7 km/h (3 Bft)
11.06.2014 14:06 21,8 C 22,8 C 60 % 1025,4 hPa 0,0 l/m 2 min 0 min 2,7 UV-I 896 W/m 18,8 km/h (3 Bft)
11.06.2014 14:08 21,7 C 23,3 C 62 % 1025,3 hPa 0,0 l/m 2 min 0 min 2,7 UV-I 802 W/m 18,8 km/h (3 Bft)
11.06.2014 14:10 21,8 C 24,4 C 63 % 1025,3 hPa 0,0 l/m 2 min 0 min 2,9 UV-I 758 W/m 16,7 km/h (3 Bft)
11.06.2014 14:12 22,0 C 25,0 C 64 % 1025,4 hPa 0,0 l/m 2 min 0 min 2,6 UV-I 645 W/m 16,7 km/h (3 Bft)
11.06.2014 14:14 21,9 C 24,4 C 62 % 1025,4 hPa 0,0 l/m 2 min 0 min 2,5 UV-I 635 W/m 16,7 km/h (3 Bft)
11.06.2014 14:16 21,8 C 24,4 C 63 % 1025,4 hPa 0,0 l/m 2 min 0 min 2,7 UV-I 654 W/m 23,0 km/h (4 Bft)
11.06.2014 14:18 21,9 C 25,6 C 64 % 1025,4 hPa 0,0 l/m 2 min 0 min 3,1 UV-I 805 W/m 14,6 km/h (3 Bft)
11.06.2014 14:20 22,3 C 26,1 C 67 % 1025,4 hPa 0,0 l/m 2 min 0 min 3,0 UV-I 775 W/m 8,4 km/h (2 Bft)
11.06.2014 14:22 22,7 C 27,2 C 65 % 1025,4 hPa 0,0 l/m 2 min 0 min 2,9 UV-I 759 W/m 12,6 km/h (3 Bft)
11.06.2014 14:24 23,1 C 27,2 C 64 % 1025,4 hPa 0,0 l/m 2 min 0 min 2,8 UV-I 715 W/m 16,7 km/h (3 Bft)
11.06.2014 14:26 23,2 C 27,2 C 60 % 1025,5 hPa 0,0 l/m 2 min 0 min 2,9 UV-I 788 W/m 14,6 km/h (3 Bft)
11.06.2014 14:28 23,0 C 26,7 C 61 % 1025,5 hPa 0,0 l/m 2 min 0 min 2,6 UV-I 773 W/m 16,7 km/h (3 Bft)
11.06.2014 14:30 23,1 C 26,7 C 61 % 1025,5 hPa 0,0 l/m 2 min 0 min 2,5 UV-I 675 W/m 14,6 km/h (3 Bft)
11.06.2014 14:32 22,9 C 25,0 C 60 % 1025,5 hPa 0,0 l/m 2 min 0 min 2,2 UV-I 492 W/m 12,6 km/h (3 Bft)
11.06.2014 14:34 22,6 C 24,4 C 60 % 1025,5 hPa 0,0 l/m 2 min 0 min 2,1 UV-I 545 W/m 18,8 km/h (3 Bft)
11.06.2014 14:36 22,2 C 23,3 C 62 % 1025,5 hPa 0,0 l/m 2 min 0 min 2,2 UV-I 584 W/m 16,7 km/h (3 Bft)
11.06.2014 14:38 22,2 C 23,3 C 64 % 1025,5 hPa 0,0 l/m 2 min 0 min 2,2 UV-I 599 W/m 14,6 km/h (3 Bft)
11.06.2014 14:40 22,1 C 23,3 C 64 % 1025,5 hPa 0,0 l/m 2 min 0 min 2,4 UV-I 686 W/m 14,6 km/h (3 Bft)
11.06.2014 14:42 22,2 C 23,3 C 64 % 1025,5 hPa 0,0 l/m 2 min 0 min 2,4 UV-I 642 W/m 14,6 km/h (3 Bft)
11.06.2014 14:44 22,2 C 22,8 C 62 % 1025,5 hPa 0,0 l/m 2 min 0 min 2,5 UV-I 650 W/m 16,7 km/h (3 Bft)
11.06.2014 14:46 22,4 C 23,3 C 65 % 1025,4 hPa 0,0 l/m 2 min 0 min 2,7 UV-I 724 W/m 12,6 km/h (3 Bft)
11.06.2014 14:48 22,8 C 23,3 C 64 % 1025,4 hPa 0,0 l/m 2 min 0 min 2,5 UV-I 638 W/m 12,6 km/h (3 Bft)
11.06.2014 14:50 23,0 C 23,3 C 63 % 1025,5 hPa 0,0 l/m 2 min 0 min 2,2 UV-I 563 W/m 23,0 km/h (4 Bft)
11.06.2014 14:52 22,9 C 22,8 C 60 % 1025,5 hPa 0,0 l/m 2 min 0 min 2,2 UV-I 587 W/m 16,7 km/h (3 Bft)
11.06.2014 14:54 22,6 C 22,8 C 60 % 1025,5 hPa 0,0 l/m 2 min 0 min 2,2 UV-I 619 W/m 16,7 km/h (3 Bft)
11.06.2014 14:56 22,6 C 22,8 C 62 % 1025,5 hPa 0,0 l/m 2 min 0 min 2,4 UV-I 687 W/m 14,6 km/h (3 Bft)
11.06.2014 14:58 22,8 C 22,8 C 64 % 1025,4 hPa 0,0 l/m 2 min 0 min 2,2 UV-I 638 W/m 16,7 km/h (3 Bft)
11.06.2014 15:00 22,8 C 22,8 C 64 % 1025,4 hPa 0,0 l/m 2 min 0 min 2,0 UV-I 636 W/m 23,0 km/h (4 Bft)
11.06.2014 15:02 22,6 C 22,2 C 61 % 1025,5 hPa 0,0 l/m 2 min 0 min 2,5 UV-I 657 W/m 18,8 km/h (3 Bft)
11.06.2014 15:06 22,2 C 22,2 C 63 % 1025,5 hPa 0,0 l/m 2 min 0 min 2,4 UV-I 726 W/m 23,0 km/h (4 Bft)
11.06.2014 15:08 22,2 C 21,7 C 62 % 1025,5 hPa 0,0 l/m 2 min 0 min 2,7 UV-I 793 W/m 18,8 km/h (3 Bft)
11.06.2014 15:10 22,4 C 22,2 C 62 % 1025,5 hPa 0,0 l/m 2 min 0 min 2,4 UV-I 707 W/m 14,6 km/h (3 Bft)
11.06.2014 15:12 22,4 C 22,2 C 62 % 1025,5 hPa 0,0 l/m 2 min 0 min 2,2 UV-I 636 W/m 16,7 km/h (3 Bft)
11.06.2014 15:14 22,6 C 22,2 C 63 % 1025,5 hPa 0,0 l/m 2 min 0 min 2,3 UV-I 554 W/m 12,6 km/h (3 Bft)
11.06.2014 15:16 22,6 C 22,2 C 61 % 1025,5 hPa 0,0 l/m 2 min 0 min 2,2 UV-I 638 W/m 25,1 km/h (4 Bft)
11.06.2014 15:18 22,5 C 22,8 C 62 % 1025,4 hPa 0,0 l/m 2 min 0 min 2,4 UV-I 775 W/m 12,6 km/h (3 Bft)
11.06.2014 15:20 22,6 C 23,9 C 61 % 1025,4 hPa 0,0 l/m 2 min 0 min 2,8 UV-I 833 W/m 14,6 km/h (3 Bft)
11.06.2014 15:22 22,6 C 25,0 C 61 % 1025,4 hPa 0,0 l/m 2 min 0 min 2,7 UV-I 796 W/m 20,9 km/h (4 Bft)
11.06.2014 15:24 22,7 C 25,6 C 60 % 1025,4 hPa 0,0 l/m 2 min 0 min 2,4 UV-I 747 W/m 20,9 km/h (4 Bft)
11.06.2014 15:26 22,7 C 25,6 C 60 % 1025,4 hPa 0,0 l/m 2 min 0 min 2,6 UV-I 786 W/m 23,0 km/h (4 Bft)
11.06.2014 15:28 23,0 C 25,0 C 58 % 1025,5 hPa 0,0 l/m 2 min 0 min 2,5 UV-I 763 W/m 20,9 km/h (4 Bft)
11.06.2014 15:30 23,3 C 25,0 C 61 % 1025,5 hPa 0,0 l/m 2 min 0 min 2,4 UV-I 717 W/m 18,8 km/h (3 Bft)
11.06.2014 15:32 23,4 C 24,4 C 57 % 1025,5 hPa 0,0 l/m 2 min 0 min 2,3 UV-I 694 W/m 10,5 km/h (2 Bft)
11.06.2014 15:34 23,2 C 23,9 C 57 % 1025,5 hPa 0,0 l/m 2 min 0 min 2,2 UV-I 677 W/m 20,9 km/h (4 Bft)
11.06.2014 15:36 23,0 C 23,3 C 60 % 1025,5 hPa 0,0 l/m 2 min 0 min 2,3 UV-I 715 W/m 18,8 km/h (3 Bft)
11.06.2014 15:38 22,9 C 23,3 C 62 % 1025,5 hPa 0,0 l/m 2 min 0 min 2,3 UV-I 737 W/m 18,8 km/h (3 Bft)
11.06.2014 15:40 23,0 C 23,3 C 61 % 1025,5 hPa 0,0 l/m 2 min 0 min 2,3 UV-I 747 W/m 16,7 km/h (3 Bft)
11.06.2014 15:42 23,3 C 23,3 C 61 % 1025,5 hPa 0,0 l/m 2 min 0 min 2,1 UV-I 628 W/m 16,7 km/h (3 Bft)
11.06.2014 15:44 23,2 C 23,3 C 58 % 1025,5 hPa 0,0 l/m 2 min 0 min 2,2 UV-I 585 W/m 16,7 km/h (3 Bft)
11.06.2014 15:46 23,4 C 23,3 C 61 % 1025,5 hPa 0,0 l/m 2 min 0 min 2,2 UV-I 654 W/m 14,6 km/h (3 Bft)
11.06.2014 15:48 23,4 C 23,3 C 61 % 1025,6 hPa 0,0 l/m 2 min 0 min 2,1 UV-I 731 W/m 14,6 km/h (3 Bft)
11.06.2014 15:50 23,3 C 23,3 C 59 % 1025,5 hPa 0,0 l/m 2 min 0 min 2,1 UV-I 680 W/m 14,6 km/h (3 Bft)
11.06.2014 15:52 23,3 C 23,3 C 59 % 1025,5 hPa 0,0 l/m 2 min 0 min 2,2 UV-I 729 W/m 12,6 km/h (3 Bft)
11.06.2014 15:54 23,4 C 23,3 C 61 % 1025,5 hPa 0,0 l/m 2 min 0 min 2,2 UV-I 742 W/m 14,6 km/h (3 Bft)
11.06.2014 15:56 23,3 C 23,3 C 61 % 1025,5 hPa 0,0 l/m 2 min 0 min 2,2 UV-I 751 W/m 12,6 km/h (3 Bft)
11.06.2014 15:58 23,6 C 23,9 C 63 % 1025,5 hPa 0,0 l/m 2 min 0 min 2,0 UV-I 714 W/m 16,7 km/h (3 Bft)
11.06.2014 16:00 23,5 C 23,3 C 60 % 1025,5 hPa 0,0 l/m 2 min 0 min 2,0 UV-I 752 W/m 16,7 km/h (3 Bft)
11.06.2014 16:02 23,4 C 23,9 C 62 % 1025,5 hPa 0,0 l/m 2 min 0 min 1,5 UV-I 819 W/m 14,6 km/h (3 Bft)
11.06.2014 16:06 23,7 C 23,9 C 65 % 1025,5 hPa 0,0 l/m 2 min 0 min 1,8 UV-I 657 W/m 20,9 km/h (4 Bft)
11.06.2014 16:08 23,7 C 23,9 C 61 % 1025,5 hPa 0,0 l/m 2 min 0 min 1,9 UV-I 686 W/m 16,7 km/h (3 Bft)
11.06.2014 16:10 23,6 C 23,3 C 59 % 1025,5 hPa 0,0 l/m 2 min 0 min 1,8 UV-I 649 W/m 16,7 km/h (3 Bft)
11.06.2014 16:12 23,3 C 22,8 C 60 % 1025,5 hPa 0,0 l/m 2 min 0 min 1,8 UV-I 636 W/m 27,2 km/h (4 Bft)
11.06.2014 16:14 23,1 C 22,8 C 60 % 1025,5 hPa 0,0 l/m 2 min 0 min 1,8 UV-I 659 W/m 23,0 km/h (4 Bft)
11.06.2014 16:16 23,2 C 22,8 C 63 % 1025,5 hPa 0,0 l/m 2 min 0 min 1,8 UV-I 664 W/m 18,8 km/h (3 Bft)
11.06.2014 16:18 23,3 C 23,3 C 60 % 1025,5 hPa 0,0 l/m 2 min 0 min 1,8 UV-I 661 W/m 14,6 km/h (3 Bft)
11.06.2014 16:20 23,3 C 23,3 C 60 % 1025,5 hPa 0,0 l/m 2 min 0 min 1,8 UV-I 643 W/m 14,6 km/h (3 Bft)
11.06.2014 16:22 23,2 C 23,3 C 62 % 1025,5 hPa 0,0 l/m 2 min 0 min 1,7 UV-I 701 W/m 20,9 km/h (4 Bft)
11.06.2014 16:24 23,2 C 22,8 C 59 % 1025,6 hPa 0,0 l/m 2 min 0 min 1,8 UV-I 708 W/m 23,0 km/h (4 Bft)
11.06.2014 16:26 23,0 C 22,8 C 60 % 1025,5 hPa 0,0 l/m 2 min 0 min 1,3 UV-I 663 W/m 20,9 km/h (4 Bft)
11.06.2014 16:28 22,9 C 22,8 C 59 % 1025,5 hPa 0,0 l/m 2 min 0 min 1,7 UV-I 686 W/m 18,8 km/h (3 Bft)
11.06.2014 16:30 22,9 C 22,8 C 60 % 1025,6 hPa 0,0 l/m 2 min 0 min 1,0 UV-I 603 W/m 20,9 km/h (4 Bft)
11.06.2014 16:32 22,7 C 22,2 C 60 % 1025,5 hPa 0,0 l/m 0 min 0 min 1,7 UV-I 306 W/m 12,6 km/h (3 Bft)
11.06.2014 16:34 22,7 C 22,8 C 63 % 1025,5 hPa 0,0 l/m 2 min 0 min 1,7 UV-I 696 W/m 12,6 km/h (3 Bft)
11.06.2014 16:36 22,9 C 23,3 C 61 % 1025,6 hPa 0,0 l/m 2 min 0 min 1,7 UV-I 679 W/m 18,8 km/h (3 Bft)
11.06.2014 16:38 23,0 C 22,8 C 62 % 1025,6 hPa 0,0 l/m 2 min 0 min 1,7 UV-I 682 W/m 18,8 km/h (3 Bft)
11.06.2014 16:40 23,3 C 23,3 C 61 % 1025,7 hPa 0,0 l/m 2 min 0 min 1,6 UV-I 663 W/m 16,7 km/h (3 Bft)
11.06.2014 16:42 23,6 C 23,3 C 59 % 1025,6 hPa 0,0 l/m 2 min 0 min 1,5 UV-I 645 W/m 20,9 km/h (4 Bft)
11.06.2014 16:44 23,4 C 23,3 C 58 % 1025,5 hPa 0,0 l/m 2 min 0 min 1,5 UV-I 635 W/m 16,7 km/h (3 Bft)
11.06.2014 16:46 23,3 C 22,8 C 58 % 1025,6 hPa 0,0 l/m 2 min 0 min 1,5 UV-I 624 W/m 27,2 km/h (4 Bft)
11.06.2014 16:48 23,4 C 23,3 C 58 % 1025,5 hPa 0,0 l/m 2 min 0 min 1,5 UV-I 619 W/m 16,7 km/h (3 Bft)
11.06.2014 16:50 23,6 C 23,3 C 59 % 1025,6 hPa 0,0 l/m 2 min 0 min 1,4 UV-I 592 W/m 18,8 km/h (3 Bft)
11.06.2014 16:52 23,6 C 23,3 C 57 % 1025,6 hPa 0,0 l/m 2 min 0 min 1,3 UV-I 603 W/m 18,8 km/h (3 Bft)
11.06.2014 16:54 23,4 C 23,3 C 57 % 1025,5 hPa 0,0 l/m 2 min 0 min 1,3 UV-I 605 W/m 16,7 km/h (3 Bft)
11.06.2014 16:56 23,3 C 23,3 C 59 % 1025,6 hPa 0,0 l/m 2 min 0 min 1,0 UV-I 570 W/m 18,8 km/h (3 Bft)
11.06.2014 16:58 23,4 C 23,3 C 58 % 1025,6 hPa 0,0 l/m 2 min 0 min 0,9 UV-I 594 W/m 23,0 km/h (4 Bft)
11.06.2014 17:00 23,6 C 23,3 C 58 % 1025,6 hPa 0,0 l/m 2 min 0 min 0,8 UV-I 594 W/m 16,7 km/h (3 Bft)
11.06.2014 17:02 23,8 C 23,3 C 55 % 1025,7 hPa 0,0 l/m 2 min 0 min 0,7 UV-I 599 W/m 14,6 km/h (3 Bft)
11.06.2014 17:06 23,7 C 23,3 C 56 % 1025,7 hPa 0,0 l/m 2 min 0 min 0,6 UV-I 566 W/m 20,9 km/h (4 Bft)
11.06.2014 17:08 23,7 C 23,3 C 56 % 1025,7 hPa 0,0 l/m 2 min 0 min 0,6 UV-I 582 W/m 16,7 km/h (3 Bft)
11.06.2014 17:10 23,6 C 23,3 C 56 % 1025,7 hPa 0,0 l/m 2 min 0 min 0,6 UV-I 584 W/m 14,6 km/h (3 Bft)
11.06.2014 17:12 23,6 C 23,3 C 57 % 1025,7 hPa 0,0 l/m 2 min 0 min 0,6 UV-I 584 W/m 12,6 km/h (3 Bft)
11.06.2014 17:14 23,4 C 22,8 C 57 % 1025,6 hPa 0,0 l/m 2 min 0 min 0,6 UV-I 577 W/m 14,6 km/h (3 Bft)
11.06.2014 17:16 23,4 C 23,3 C 60 % 1025,6 hPa 0,0 l/m 2 min 0 min 0,6 UV-I 575 W/m 14,6 km/h (3 Bft)
11.06.2014 17:18 23,3 C 22,8 C 56 % 1025,7 hPa 0,0 l/m 2 min 0 min 0,5 UV-I 575 W/m 16,7 km/h (3 Bft)
11.06.2014 17:20 23,3 C 22,8 C 59 % 1025,7 hPa 0,0 l/m 0 min 0 min 0,5 UV-I 179 W/m 16,7 km/h (3 Bft)
11.06.2014 17:22 23,1 C 22,2 C 57 % 1025,6 hPa 0,0 l/m 0 min 0 min 0,5 UV-I 207 W/m 12,6 km/h (3 Bft)
11.06.2014 17:24 23,0 C 22,2 C 58 % 1025,7 hPa 0,0 l/m 2 min 0 min 0,5 UV-I 533 W/m 12,6 km/h (3 Bft)
11.06.2014 17:26 23,0 C 22,2 C 58 % 1025,7 hPa 0,0 l/m 2 min 0 min 0,5 UV-I 531 W/m 12,6 km/h (3 Bft)
11.06.2014 17:28 23,2 C 22,2 C 57 % 1025,6 hPa 0,0 l/m 2 min 0 min 0,0 UV-I 513 W/m 14,6 km/h (3 Bft)
11.06.2014 17:30 23,3 C 22,2 C 57 % 1025,6 hPa 0,0 l/m 2 min 0 min 0,0 UV-I 504 W/m 12,6 km/h (3 Bft)
11.06.2014 17:32 23,2 C 22,2 C 57 % 1025,7 hPa 0,0 l/m 2 min 0 min 0,0 UV-I 520 W/m 10,5 km/h (2 Bft)
11.06.2014 17:34 23,2 C 22,2 C 57 % 1025,7 hPa 0,0 l/m 2 min 0 min 0,0 UV-I 520 W/m 16,7 km/h (3 Bft)
11.06.2014 17:36 23,2 C 22,2 C 58 % 1025,7 hPa 0,0 l/m 2 min 0 min 0,0 UV-I 526 W/m 16,7 km/h (3 Bft)
11.06.2014 17:38 23,1 C 22,2 C 58 % 1025,6 hPa 0,0 l/m 2 min 0 min 0,0 UV-I 482 W/m 18,8 km/h (3 Bft)
11.06.2014 17:40 23,1 C 22,2 C 58 % 1025,7 hPa 0,0 l/m 2 min 0 min 0,0 UV-I 482 W/m 12,6 km/h (3 Bft)
11.06.2014 17:42 23,1 C 22,2 C 58 % 1025,8 hPa 0,0 l/m 2 min 0 min 0,0 UV-I 480 W/m 14,6 km/h (3 Bft)
11.06.2014 17:44 23,2 C 22,2 C 58 % 1025,7 hPa 0,0 l/m 2 min 0 min 0,0 UV-I 452 W/m 14,6 km/h (3 Bft)
11.06.2014 17:46 23,4 C 22,2 C 57 % 1025,7 hPa 0,0 l/m 2 min 0 min 0,0 UV-I 381 W/m 18,8 km/h (3 Bft)
11.06.2014 17:48 23,4 C 22,2 C 57 % 1025,7 hPa 0,0 l/m 2 min 0 min 0,0 UV-I 454 W/m 20,9 km/h (4 Bft)
11.06.2014 17:50 23,2 C 21,7 C 57 % 1025,8 hPa 0,0 l/m 2 min 0 min 0,0 UV-I 441 W/m 18,8 km/h (3 Bft)
11.06.2014 17:52 23,1 C 21,7 C 56 % 1025,8 hPa 0,0 l/m 2 min 0 min 0,0 UV-I 475 W/m 14,6 km/h (3 Bft)
11.06.2014 17:54 23,1 C 22,2 C 59 % 1025,8 hPa 0,0 l/m 2 min 0 min 0,0 UV-I 483 W/m 18,8 km/h (3 Bft)
11.06.2014 17:56 23,1 C 22,2 C 57 % 1025,9 hPa 0,0 l/m 2 min 0 min 0,0 UV-I 496 W/m 20,9 km/h (4 Bft)
11.06.2014 17:58 22,9 C 22,2 C 56 % 1025,8 hPa 0,0 l/m 2 min 0 min 0,0 UV-I 427 W/m 16,7 km/h (3 Bft)
11.06.2014 18:00 22,9 C 22,2 C 58 % 1025,8 hPa 0,0 l/m 2 min 0 min 0,0 UV-I 471 W/m 14,6 km/h (3 Bft)
11.06.2014 18:02 22,9 C 22,2 C 60 % 1025,9 hPa 0,0 l/m 2 min 0 min 0,0 UV-I 492 W/m 23,0 km/h (4 Bft)
11.06.2014 18:06 22,8 C 21,7 C 58 % 1025,8 hPa 0,0 l/m 2 min 0 min 0,0 UV-I 417 W/m 27,2 km/h (4 Bft)
11.06.2014 18:08 22,8 C 21,7 C 58 % 1025,8 hPa 0,0 l/m 2 min 0 min 0,0 UV-I 392 W/m 12,6 km/h (3 Bft)
11.06.2014 18:10 22,7 C 21,7 C 58 % 1025,8 hPa 0,0 l/m 2 min 0 min 0,0 UV-I 366 W/m 14,6 km/h (3 Bft)
11.06.2014 18:12 22,7 C 21,7 C 58 % 1025,8 hPa 0,0 l/m 2 min 0 min 0,0 UV-I 313 W/m 8,4 km/h (2 Bft)
11.06.2014 18:14 22,7 C 21,7 C 58 % 1025,7 hPa 0,0 l/m 0 min 0 min 0,0 UV-I 137 W/m 20,9 km/h (4 Bft)
11.06.2014 18:16 22,6 C 21,7 C 59 % 1025,7 hPa 0,0 l/m 2 min 0 min 0,0 UV-I 246 W/m 16,7 km/h (3 Bft)
11.06.2014 18:18 22,6 C 21,7 C 60 % 1025,8 hPa 0,0 l/m 2 min 0 min 0,0 UV-I 292 W/m 10,5 km/h (2 Bft)
11.06.2014 18:20 22,6 C 21,7 C 60 % 1025,8 hPa 0,0 l/m 2 min 0 min 0,0 UV-I 278 W/m 12,6 km/h (3 Bft)
11.06.2014 18:22 22,6 C 21,1 C 61 % 1025,8 hPa 0,0 l/m 2 min 0 min 0,0 UV-I 241 W/m 4,2 km/h (1 Bft)
11.06.2014 18:24 22,6 C 21,1 C 60 % 1025,8 hPa 0,0 l/m 2 min 0 min 0,0 UV-I 251 W/m 8,4 km/h (2 Bft)
11.06.2014 18:26 22,7 C 21,1 C 61 % 1025,9 hPa 0,0 l/m 2 min 0 min 0,0 UV-I 283 W/m 18,8 km/h (3 Bft)
11.06.2014 18:28 22,7 C 21,1 C 59 % 1025,8 hPa 0,0 l/m 2 min 0 min 0,0 UV-I 311 W/m 10,5 km/h (2 Bft)
11.06.2014 18:30 22,7 C 21,1 C 58 % 1025,8 hPa 0,0 l/m 2 min 0 min 0,0 UV-I 380 W/m 14,6 km/h (3 Bft)
11.06.2014 18:32 22,6 C 21,1 C 57 % 1025,8 hPa 0,0 l/m 2 min 0 min 0,0 UV-I 318 W/m 10,5 km/h (2 Bft)
11.06.2014 18:34 22,6 C 21,1 C 58 % 1025,8 hPa 0,0 l/m 2 min 0 min 0,0 UV-I 269 W/m 14,6 km/h (3 Bft)
11.06.2014 18:36 22,6 C 21,1 C 59 % 1025,8 hPa 0,0 l/m 2 min 0 min 0,0 UV-I 271 W/m 12,6 km/h (3 Bft)
11.06.2014 18:38 22,6 C 21,1 C 61 % 1025,8 hPa 0,0 l/m 2 min 0 min 0,0 UV-I 297 W/m 10,5 km/h (2 Bft)
11.06.2014 18:40 22,7 C 21,1 C 59 % 1025,8 hPa 0,0 l/m 2 min 0 min 0,0 UV-I 299 W/m 16,7 km/h (3 Bft)
11.06.2014 18:42 22,7 C 21,1 C 58 % 1025,8 hPa 0,0 l/m 2 min 0 min 0,0 UV-I 336 W/m 14,6 km/h (3 Bft)
11.06.2014 18:44 22,6 C 21,1 C 58 % 1025,8 hPa 0,0 l/m 2 min 0 min 0,0 UV-I 330 W/m 18,8 km/h (3 Bft)
11.06.2014 18:46 22,6 C 21,1 C 57 % 1025,8 hPa 0,0 l/m 2 min 0 min 0,0 UV-I 334 W/m 16,7 km/h (3 Bft)
11.06.2014 18:48 22,6 C 21,1 C 58 % 1025,8 hPa 0,0 l/m 2 min 0 min 0,0 UV-I 339 W/m 18,8 km/h (3 Bft)
11.06.2014 18:50 22,6 C 21,1 C 58 % 1025,9 hPa 0,0 l/m 2 min 0 min 0,0 UV-I 343 W/m 20,9 km/h (4 Bft)
11.06.2014 18:52 22,6 C 21,1 C 58 % 1025,8 hPa 0,0 l/m 2 min 0 min 0,0 UV-I 346 W/m 18,8 km/h (3 Bft)
11.06.2014 18:54 22,6 C 21,7 C 58 % 1025,9 hPa 0,0 l/m 2 min 0 min 0,0 UV-I 355 W/m 16,7 km/h (3 Bft)
11.06.2014 18:56 22,5 C 21,7 C 59 % 1025,9 hPa 0,0 l/m 2 min 0 min 0,0 UV-I 364 W/m 16,7 km/h (3 Bft)
11.06.2014 18:58 22,6 C 21,7 C 59 % 1025,9 hPa 0,0 l/m 2 min 0 min 0,0 UV-I 352 W/m 14,6 km/h (3 Bft)
11.06.2014 19:00 22,6 C 21,7 C 60 % 1025,9 hPa 0,0 l/m 2 min 0 min 0,0 UV-I 339 W/m 12,6 km/h (3 Bft)
11.06.2014 19:02 22,6 C 21,7 C 60 % 1025,9 hPa 0,0 l/m 2 min 0 min 0,0 UV-I 329 W/m 18,8 km/h (3 Bft)
11.06.2014 19:06 22,6 C 21,7 C 60 % 1025,9 hPa 0,0 l/m 2 min 0 min 0,0 UV-I 195 W/m 16,7 km/h (3 Bft)
11.06.2014 19:08 22,6 C 21,7 C 59 % 1025,9 hPa 0,0 l/m 0 min 0 min 0,0 UV-I 141 W/m 20,9 km/h (4 Bft)
11.06.2014 19:10 22,5 C 21,1 C 59 % 1026,0 hPa 0,0 l/m 2 min 0 min 0,0 UV-I 234 W/m 20,9 km/h (4 Bft)
11.06.2014 19:12 22,4 C 21,1 C 59 % 1025,9 hPa 0,0 l/m 2 min 0 min 0,0 UV-I 255 W/m 25,1 km/h (4 Bft)
11.06.2014 19:14 22,3 C 21,1 C 59 % 1026,0 hPa 0,0 l/m 2 min 0 min 0,0 UV-I 243 W/m 16,7 km/h (3 Bft)
11.06.2014 19:16 22,2 C 21,1 C 60 % 1026,0 hPa 0,0 l/m 2 min 0 min 0,0 UV-I 223 W/m 16,7 km/h (3 Bft)
11.06.2014 19:18 22,2 C 21,1 C 60 % 1026,0 hPa 0,0 l/m 0 min 0 min 0,0 UV-I 97 W/m 18,8 km/h (3 Bft)
11.06.2014 19:20 22,1 C 20,6 C 60 % 1026,0 hPa 0,0 l/m 0 min 0 min 0,0 UV-I 86 W/m 10,5 km/h (2 Bft)
11.06.2014 19:22 22,1 C 20,6 C 61 % 1026,0 hPa 0,0 l/m 0 min 0 min 0,0 UV-I 156 W/m 12,6 km/h (3 Bft)
11.06.2014 19:24 21,9 C 20,6 C 61 % 1026,0 hPa 0,0 l/m 2 min 0 min 0,0 UV-I 211 W/m 12,6 km/h (3 Bft)
11.06.2014 19:26 21,9 C 20,6 C 61 % 1026,0 hPa 0,0 l/m 2 min 0 min 0,0 UV-I 223 W/m 12,6 km/h (3 Bft)
11.06.2014 19:28 21,9 C 20,6 C 60 % 1025,9 hPa 0,0 l/m 2 min 0 min 0,0 UV-I 220 W/m 23,0 km/h (4 Bft)
11.06.2014 19:30 21,9 C 20,6 C 60 % 1026,0 hPa 0,0 l/m 2 min 0 min 0,0 UV-I 195 W/m 16,7 km/h (3 Bft)
11.06.2014 19:32 21,9 C 20,6 C 61 % 1026,0 hPa 0,0 l/m 2 min 0 min 0,0 UV-I 190 W/m 16,7 km/h (3 Bft)
11.06.2014 19:34 21,9 C 20,6 C 60 % 1026,0 hPa 0,0 l/m 2 min 0 min 0,0 UV-I 197 W/m 14,6 km/h (3 Bft)
11.06.2014 19:36 21,9 C 20,6 C 61 % 1025,9 hPa 0,0 l/m 2 min 0 min 0,0 UV-I 199 W/m 14,6 km/h (3 Bft)
11.06.2014 19:38 21,8 C 20,6 C 61 % 1025,9 hPa 0,0 l/m 2 min 0 min 0,0 UV-I 193 W/m 14,6 km/h (3 Bft)
11.06.2014 19:40 21,8 C 20,6 C 61 % 1025,9 hPa 0,0 l/m 2 min 0 min 0,0 UV-I 190 W/m 16,7 km/h (3 Bft)
11.06.2014 19:42 21,8 C 20,6 C 62 % 1025,9 hPa 0,0 l/m 2 min 0 min 0,0 UV-I 169 W/m 12,6 km/h (3 Bft)
11.06.2014 19:44 21,8 C 20,6 C 62 % 1025,9 hPa 0,0 l/m 0 min 0 min 0,0 UV-I 130 W/m 20,9 km/h (4 Bft)
11.06.2014 19:46 21,8 C 20,6 C 62 % 1025,9 hPa 0,0 l/m 0 min 0 min 0,0 UV-I 107 W/m 14,6 km/h (3 Bft)
11.06.2014 19:48 21,8 C 20,6 C 62 % 1025,9 hPa 0,0 l/m 0 min 0 min 0,0 UV-I 116 W/m 16,7 km/h (3 Bft)
11.06.2014 19:50 21,7 C 20,6 C 61 % 1025,9 hPa 0,0 l/m 2 min 0 min 0,0 UV-I 128 W/m 12,6 km/h (3 Bft)
11.06.2014 19:52 21,7 C 20,6 C 61 % 1025,9 hPa 0,0 l/m 2 min 0 min 0,0 UV-I 134 W/m 16,7 km/h (3 Bft)
11.06.2014 19:54 21,7 C 20,6 C 61 % 1026,0 hPa 0,0 l/m 2 min 0 min 0,0 UV-I 139 W/m 16,7 km/h (3 Bft)
11.06.2014 19:56 21,7 C 20,0 C 63 % 1025,9 hPa 0,0 l/m 0 min 0 min 0,0 UV-I 114 W/m 8,4 km/h (2 Bft)
11.06.2014 19:58 21,7 C 20,6 C 63 % 1025,9 hPa 0,0 l/m 2 min 0 min 0,0 UV-I 137 W/m 12,6 km/h (3 Bft)
11.06.2014 20:00 21,6 C 20,0 C 63 % 1025,9 hPa 0,0 l/m 2 min 0 min 0,0 UV-I 134 W/m 18,8 km/h (3 Bft)
11.06.2014 20:02 21,6 C 20,0 C 62 % 1025,9 hPa 0,0 l/m 2 min 0 min 0,0 UV-I 135 W/m 16,7 km/h (3 Bft)
11.06.2014 20:06 21,5 C 20,0 C 62 % 1025,9 hPa 0,0 l/m 2 min 0 min 0,0 UV-I 127 W/m 16,7 km/h (3 Bft)
11.06.2014 20:08 21,5 C 20,0 C 63 % 1026,0 hPa 0,0 l/m 2 min 0 min 0,0 UV-I 120 W/m 12,6 km/h (3 Bft)
11.06.2014 20:10 21,4 C 20,0 C 63 % 1026,0 hPa 0,0 l/m 2 min 0 min 0,0 UV-I 118 W/m 16,7 km/h (3 Bft)
11.06.2014 20:12 21,4 C 20,0 C 62 % 1026,0 hPa 0,0 l/m 2 min 0 min 0,0 UV-I 116 W/m 18,8 km/h (3 Bft)
11.06.2014 20:14 21,4 C 20,0 C 63 % 1026,0 hPa 0,0 l/m 2 min 0 min 0,0 UV-I 118 W/m 14,6 km/h (3 Bft)
11.06.2014 20:16 21,4 C 20,0 C 63 % 1026,1 hPa 0,0 l/m 2 min 0 min 0,0 UV-I 116 W/m 16,7 km/h (3 Bft)
11.06.2014 20:18 21,3 C 20,0 C 63 % 1026,1 hPa 0,0 l/m 2 min 0 min 0,0 UV-I 111 W/m 16,7 km/h (3 Bft)
11.06.2014 20:20 21,3 C 20,0 C 63 % 1026,0 hPa 0,0 l/m 2 min 0 min 0,0 UV-I 107 W/m 16,7 km/h (3 Bft)
11.06.2014 20:22 21,3 C 20,0 C 63 % 1026,0 hPa 0,0 l/m 2 min 0 min 0,0 UV-I 95 W/m 14,6 km/h (3 Bft)
11.06.2014 20:24 21,2 C 19,4 C 63 % 1026,0 hPa 0,0 l/m 2 min 0 min 0,0 UV-I 91 W/m 12,6 km/h (3 Bft)
11.06.2014 20:26 21,2 C 19,4 C 63 % 1026,0 hPa 0,0 l/m 2 min 0 min 0,0 UV-I 90 W/m 12,6 km/h (3 Bft)
11.06.2014 20:28 21,2 C 19,4 C 63 % 1026,1 hPa 0,0 l/m 2 min 0 min 0,0 UV-I 90 W/m 10,5 km/h (2 Bft)
11.06.2014 20:30 21,1 C 19,4 C 63 % 1026,1 hPa 0,0 l/m 2 min 0 min 0,0 UV-I 83 W/m 14,6 km/h (3 Bft)
11.06.2014 20:32 21,1 C 19,4 C 64 % 1026,1 hPa 0,0 l/m 2 min 0 min 0,0 UV-I 83 W/m 10,5 km/h (2 Bft)
11.06.2014 20:34 21,0 C 19,4 C 64 % 1026,1 hPa 0,0 l/m 2 min 0 min 0,0 UV-I 79 W/m 10,5 km/h (2 Bft)
11.06.2014 20:36 21,0 C 19,4 C 63 % 1026,1 hPa 0,0 l/m 2 min 0 min 0,0 UV-I 74 W/m 20,9 km/h (4 Bft)
11.06.2014 20:38 21,0 C 19,4 C 64 % 1026,1 hPa 0,0 l/m 0 min 0 min 0,0 UV-I 69 W/m 14,6 km/h (3 Bft)
11.06.2014 20:40 20,9 C 19,4 C 64 % 1026,1 hPa 0,0 l/m 0 min 0 min 0,0 UV-I 65 W/m 12,6 km/h (3 Bft)
11.06.2014 20:42 20,9 C 19,4 C 63 % 1026,1 hPa 0,0 l/m 0 min 0 min 0,0 UV-I 62 W/m 14,6 km/h (3 Bft)
11.06.2014 20:44 20,8 C 18,9 C 65 % 1026,1 hPa 0,0 l/m 0 min 0 min 0,0 UV-I 53 W/m 4,2 km/h (1 Bft)
11.06.2014 20:46 20,8 C 18,9 C 65 % 1026,1 hPa 0,0 l/m 0 min 0 min 0,0 UV-I 51 W/m 10,5 km/h (2 Bft)
11.06.2014 20:48 20,7 C 18,9 C 65 % 1026,1 hPa 0,0 l/m 0 min 0 min 0,0 UV-I 49 W/m 8,4 km/h (2 Bft)
11.06.2014 20:50 20,7 C 18,9 C 66 % 1026,2 hPa 0,0 l/m 0 min 0 min 0,0 UV-I 47 W/m 8,4 km/h (2 Bft)
11.06.2014 20:52 20,5 C 18,9 C 67 % 1026,2 hPa 0,0 l/m 0 min 0 min 0,0 UV-I 44 W/m 8,4 km/h (2 Bft)
11.06.2014 20:54 20,4 C 18,3 C 67 % 1026,2 hPa 0,0 l/m 0 min 0 min 0,0 UV-I 42 W/m 10,5 km/h (2 Bft)
11.06.2014 20:56 20,3 C 18,3 C 68 % 1026,2 hPa 0,0 l/m 0 min 0 min 0,0 UV-I 40 W/m 8,4 km/h (2 Bft)
11.06.2014 20:58 20,2 C 18,3 C 68 % 1026,2 hPa 0,0 l/m 0 min 0 min 0,0 UV-I 37 W/m 8,4 km/h (2 Bft)
11.06.2014 21:00 20,2 C 18,3 C 67 % 1026,3 hPa 0,0 l/m 0 min 0 min 0,0 UV-I 35 W/m 10,5 km/h (2 Bft)
11.06.2014 21:02 20,1 C 18,3 C 67 % 1026,4 hPa 0,0 l/m 0 min 0 min 0,0 UV-I 33 W/m 12,6 km/h (3 Bft)
11.06.2014 21:06 20,1 C 18,3 C 67 % 1026,4 hPa 0,0 l/m 0 min 0 min 0,0 UV-I 28 W/m 16,7 km/h (3 Bft)
11.06.2014 21:08 19,9 C 17,8 C 68 % 1026,3 hPa 0,0 l/m 0 min 0 min 0,0 UV-I 26 W/m 10,5 km/h (2 Bft)
11.06.2014 21:10 19,9 C 17,8 C 68 % 1026,4 hPa 0,0 l/m 0 min 0 min 0,0 UV-I 25 W/m 10,5 km/h (2 Bft)
11.06.2014 21:12 19,8 C 17,8 C 68 % 1026,4 hPa 0,0 l/m 0 min 0 min 0,0 UV-I 23 W/m 12,6 km/h (3 Bft)
11.06.2014 21:14 19,7 C 17,8 C 68 % 1026,5 hPa 0,0 l/m 0 min 0 min 0,0 UV-I 19 W/m 10,5 km/h (2 Bft)
11.06.2014 21:16 19,7 C 17,8 C 68 % 1026,4 hPa 0,0 l/m 0 min 0 min 0,0 UV-I 18 W/m 10,5 km/h (2 Bft)
11.06.2014 21:18 19,6 C 17,8 C 67 % 1026,4 hPa 0,0 l/m 0 min 0 min 0,0 UV-I 16 W/m 8,4 km/h (2 Bft)
11.06.2014 21:20 19,6 C 17,8 C 67 % 1026,5 hPa 0,0 l/m 0 min 0 min 0,0 UV-I 14 W/m 10,5 km/h (2 Bft)
11.06.2014 21:22 19,5 C 17,2 C 67 % 1026,5 hPa 0,0 l/m 0 min 0 min 0,0 UV-I 14 W/m 10,5 km/h (2 Bft)
11.06.2014 21:24 19,4 C 17,2 C 68 % 1026,5 hPa 0,0 l/m 0 min 0 min 0,0 UV-I 12 W/m 2,1 km/h (1 Bft)
11.06.2014 21:26 19,3 C 17,2 C 68 % 1026,5 hPa 0,0 l/m 0 min 0 min 0,0 UV-I 11 W/m 12,6 km/h (3 Bft)
11.06.2014 21:28 19,2 C 17,2 C 68 % 1026,5 hPa 0,0 l/m 0 min 0 min 0,0 UV-I 11 W/m 10,5 km/h (2 Bft)
11.06.2014 21:30 19,1 C 16,7 C 69 % 1026,6 hPa 0,0 l/m 0 min 0 min 0,0 UV-I 9 W/m 8,4 km/h (2 Bft)
11.06.2014 21:32 19,0 C 16,7 C 70 % 1026,5 hPa 0,0 l/m 0 min 0 min 0,0 UV-I 9 W/m 2,1 km/h (1 Bft)
11.06.2014 21:34 18,9 C 16,7 C 69 % 1026,6 hPa 0,0 l/m 0 min 0 min 0,0 UV-I 7 W/m 10,5 km/h (2 Bft)
11.06.2014 21:36 18,9 C 16,7 C 68 % 1026,6 hPa 0,0 l/m 0 min 0 min 0,0 UV-I 7 W/m 6,3 km/h (2 Bft)
11.06.2014 21:38 18,9 C 16,7 C 69 % 1026,7 hPa 0,0 l/m 0 min 0 min 0,0 UV-I 7 W/m 2,1 km/h (1 Bft)
11.06.2014 21:40 18,8 C 16,7 C 69 % 1026,7 hPa 0,0 l/m 0 min 0 min 0,0 UV-I 5 W/m 6,3 km/h (2 Bft)
11.06.2014 21:42 18,8 C 16,7 C 69 % 1026,7 hPa 0,0 l/m 0 min 0 min 0,0 UV-I 5 W/m 2,1 km/h (1 Bft)
11.06.2014 21:44 18,7 C 16,7 C 69 % 1026,7 hPa 0,0 l/m 0 min 0 min 0,0 UV-I 5 W/m 10,5 km/h (2 Bft)
11.06.2014 21:46 18,6 C 16,7 C 70 % 1026,8 hPa 0,0 l/m 0 min 0 min 0,0 UV-I 5 W/m 2,1 km/h (1 Bft)
11.06.2014 21:48 18,5 C 16,7 C 71 % 1026,8 hPa 0,0 l/m 0 min 0 min 0,0 UV-I 5 W/m 6,3 km/h (2 Bft)
11.06.2014 21:50 18,3 C 16,1 C 71 % 1026,8 hPa 0,0 l/m 0 min 0 min 0,0 UV-I 0 W/m 2,1 km/h (1 Bft)
11.06.2014 21:52 18,2 C 16,1 C 72 % 1026,8 hPa 0,0 l/m 0 min 0 min 0,0 UV-I 0 W/m 6,3 km/h (2 Bft)
11.06.2014 21:54 18,1 C 16,1 C 72 % 1026,8 hPa 0,0 l/m 0 min 0 min 0,0 UV-I 0 W/m 6,3 km/h (2 Bft)
11.06.2014 21:56 18,1 C 15,6 C 72 % 1026,8 hPa 0,0 l/m 0 min 0 min 0,0 UV-I 0 W/m 0,0 km/h (0 Bft)
11.06.2014 21:58 18,0 C 15,6 C 72 % 1026,9 hPa 0,0 l/m 0 min 0 min 0,0 UV-I 0 W/m 0,0 km/h (0 Bft)
11.06.2014 22:00 17,9 C 15,6 C 73 % 1026,9 hPa 0,0 l/m 0 min 0 min 0,0 UV-I 0 W/m 2,1 km/h (1 Bft)
11.06.2014 22:02 17,8 C 15,6 C 73 % 1026,9 hPa 0,0 l/m 0 min 0 min 0,0 UV-I 0 W/m 2,1 km/h (1 Bft)
11.06.2014 22:06 17,7 C 15,0 C 72 % 1026,9 hPa 0,0 l/m 0 min 0 min 0,0 UV-I 0 W/m 4,2 km/h (1 Bft)
11.06.2014 22:08 17,7 C 15,0 C 72 % 1026,9 hPa 0,0 l/m 0 min 0 min 0,0 UV-I 0 W/m 0,0 km/h (0 Bft)
11.06.2014 22:10 17,7 C 15,0 C 72 % 1027,0 hPa 0,0 l/m 0 min 0 min 0,0 UV-I 0 W/m 2,1 km/h (1 Bft)
11.06.2014 22:12 17,7 C 15,0 C 72 % 1027,0 hPa 0,0 l/m 0 min 0 min 0,0 UV-I 0 W/m 2,1 km/h (1 Bft)
11.06.2014 22:14 17,6 C 15,0 C 72 % 1027,1 hPa 0,0 l/m 0 min 0 min 0,0 UV-I 0 W/m 2,1 km/h (1 Bft)
11.06.2014 22:16 17,5 C 15,0 C 72 % 1027,1 hPa 0,0 l/m 0 min 0 min 0,0 UV-I 0 W/m 2,1 km/h (1 Bft)
11.06.2014 22:18 17,4 C 15,0 C 74 % 1027,0 hPa 0,0 l/m 0 min 0 min 0,0 UV-I 0 W/m 6,3 km/h (2 Bft)
11.06.2014 22:20 17,3 C 15,0 C 74 % 1027,1 hPa 0,0 l/m 0 min 0 min 0,0 UV-I 0 W/m 10,5 km/h (2 Bft)
11.06.2014 22:22 17,3 C 15,0 C 75 % 1027,1 hPa 0,0 l/m 0 min 0 min 0,0 UV-I 0 W/m 2,1 km/h (1 Bft)
11.06.2014 22:24 17,2 C 15,0 C 75 % 1027,1 hPa 0,0 l/m 0 min 0 min 0,0 UV-I 0 W/m 6,3 km/h (2 Bft)
11.06.2014 22:26 17,1 C 14,4 C 75 % 1027,1 hPa 0,0 l/m 0 min 0 min 0,0 UV-I 0 W/m 0,0 km/h (0 Bft)
11.06.2014 22:28 17,1 C 14,4 C 74 % 1027,1 hPa 0,0 l/m 0 min 0 min 0,0 UV-I 0 W/m 0,0 km/h (0 Bft)
11.06.2014 22:30 17,0 C 14,4 C 75 % 1027,1 hPa 0,0 l/m 0 min 0 min 0,0 UV-I 0 W/m 0,0 km/h (0 Bft)
11.06.2014 22:32 16,9 C 14,4 C 75 % 1027,1 hPa 0,0 l/m 0 min 0 min 0,0 UV-I 0 W/m 2,1 km/h (1 Bft)
11.06.2014 22:34 16,9 C 14,4 C 75 % 1027,1 hPa 0,0 l/m 0 min 0 min 0,0 UV-I 0 W/m 2,1 km/h (1 Bft)
11.06.2014 22:36 16,9 C 14,4 C 75 % 1027,1 hPa 0,0 l/m 0 min 0 min 0,0 UV-I 0 W/m 0,0 km/h (0 Bft)
11.06.2014 22:38 16,9 C 14,4 C 75 % 1027,1 hPa 0,0 l/m 0 min 0 min 0,0 UV-I 0 W/m 0,0 km/h (0 Bft)
11.06.2014 22:40 16,9 C 14,4 C 75 % 1027,1 hPa 0,0 l/m 0 min 0 min 0,0 UV-I 0 W/m 0,0 km/h (0 Bft)
11.06.2014 22:42 16,9 C 14,4 C 75 % 1027,1 hPa 0,0 l/m 0 min 0 min 0,0 UV-I 0 W/m 2,1 km/h (1 Bft)
11.06.2014 22:44 16,9 C 14,4 C 75 % 1027,1 hPa 0,0 l/m 0 min 0 min 0,0 UV-I 0 W/m 0,0 km/h (0 Bft)
11.06.2014 22:46 16,8 C 14,4 C 76 % 1027,1 hPa 0,0 l/m 0 min 0 min 0,0 UV-I 0 W/m 2,1 km/h (1 Bft)
11.06.2014 22:48 16,8 C 14,4 C 76 % 1027,1 hPa 0,0 l/m 0 min 0 min 0,0 UV-I 0 W/m 2,1 km/h (1 Bft)
11.06.2014 22:50 16,7 C 14,4 C 75 % 1027,1 hPa 0,0 l/m 0 min 0 min 0,0 UV-I 0 W/m 0,0 km/h (0 Bft)
11.06.2014 22:52 16,7 C 14,4 C 75 % 1027,1 hPa 0,0 l/m 0 min 0 min 0,0 UV-I 0 W/m 4,2 km/h (1 Bft)
11.06.2014 22:54 16,7 C 14,4 C 77 % 1027,1 hPa 0,0 l/m 0 min 0 min 0,0 UV-I 0 W/m 2,1 km/h (1 Bft)
11.06.2014 22:56 16,6 C 14,4 C 77 % 1027,1 hPa 0,0 l/m 0 min 0 min 0,0 UV-I 0 W/m 6,3 km/h (2 Bft)
11.06.2014 22:58 16,5 C 13,9 C 77 % 1027,1 hPa 0,0 l/m 0 min 0 min 0,0 UV-I 0 W/m 0,0 km/h (0 Bft)
11.06.2014 23:00 16,4 C 13,9 C 77 % 1027,1 hPa 0,0 l/m 0 min 0 min 0,0 UV-I 0 W/m 0,0 km/h (0 Bft)
11.06.2014 23:02 16,4 C 13,9 C 77 % 1027,1 hPa 0,0 l/m 0 min 0 min 0,0 UV-I 0 W/m 0,0 km/h (0 Bft)
11.06.2014 23:06 16,4 C 13,9 C 77 % 1027,1 hPa 0,0 l/m 0 min 0 min 0,0 UV-I 0 W/m 2,1 km/h (1 Bft)
11.06.2014 23:08 16,3 C 13,9 C 77 % 1027,1 hPa 0,0 l/m 0 min 0 min 0,0 UV-I 0 W/m 0,0 km/h (0 Bft)
11.06.2014 23:10 16,2 C 13,9 C 78 % 1027,2 hPa 0,0 l/m 0 min 0 min 0,0 UV-I 0 W/m 2,1 km/h (1 Bft)
11.06.2014 23:12 16,1 C 13,9 C 78 % 1027,2 hPa 0,0 l/m 0 min 0 min 0,0 UV-I 0 W/m 2,1 km/h (1 Bft)
11.06.2014 23:14 16,1 C 13,9 C 78 % 1027,2 hPa 0,0 l/m 0 min 0 min 0,0 UV-I 0 W/m 2,1 km/h (1 Bft)
11.06.2014 23:16 16,0 C 13,9 C 78 % 1027,2 hPa 0,0 l/m 0 min 0 min 0,0 UV-I 0 W/m 6,3 km/h (2 Bft)
11.06.2014 23:18 15,9 C 13,9 C 78 % 1027,2 hPa 0,0 l/m 0 min 0 min 0,0 UV-I 0 W/m 0,0 km/h (0 Bft)
11.06.2014 23:20 15,9 C 13,9 C 79 % 1027,2 hPa 0,0 l/m 0 min 0 min 0,0 UV-I 0 W/m 2,1 km/h (1 Bft)
11.06.2014 23:22 15,9 C 13,9 C 79 % 1027,3 hPa 0,0 l/m 0 min 0 min 0,0 UV-I 0 W/m 2,1 km/h (1 Bft)
11.06.2014 23:24 15,8 C 13,9 C 79 % 1027,3 hPa 0,0 l/m 0 min 0 min 0,0 UV-I 0 W/m 0,0 km/h (0 Bft)
11.06.2014 23:26 15,8 C 13,9 C 79 % 1027,3 hPa 0,0 l/m 0 min 0 min 0,0 UV-I 0 W/m 4,2 km/h (1 Bft)
11.06.2014 23:28 15,8 C 13,9 C 79 % 1027,3 hPa 0,0 l/m 0 min 0 min 0,0 UV-I 0 W/m 0,0 km/h (0 Bft)
11.06.2014 23:30 15,8 C 13,9 C 79 % 1027,3 hPa 0,0 l/m 0 min 0 min 0,0 UV-I 0 W/m 0,0 km/h (0 Bft)
11.06.2014 23:32 15,9 C 13,9 C 78 % 1027,3 hPa 0,0 l/m 0 min 0 min 0,0 UV-I 0 W/m 6,3 km/h (2 Bft)
11.06.2014 23:34 15,9 C 13,9 C 78 % 1027,3 hPa 0,0 l/m 0 min 0 min 0,0 UV-I 0 W/m 2,1 km/h (1 Bft)
11.06.2014 23:36 15,9 C 13,9 C 78 % 1027,3 hPa 0,0 l/m 0 min 0 min 0,0 UV-I 0 W/m 0,0 km/h (0 Bft)
11.06.2014 23:38 16,0 C 13,9 C 78 % 1027,3 hPa 0,0 l/m 0 min 0 min 0,0 UV-I 0 W/m 6,3 km/h (2 Bft)
11.06.2014 23:40 15,9 C 13,9 C 78 % 1027,4 hPa 0,0 l/m 0 min 0 min 0,0 UV-I 0 W/m 0,0 km/h (0 Bft)
11.06.2014 23:42 15,9 C 13,9 C 78 % 1027,3 hPa 0,0 l/m 0 min 0 min 0,0 UV-I 0 W/m 0,0 km/h (0 Bft)
11.06.2014 23:44 15,9 C 13,3 C 78 % 1027,4 hPa 0,0 l/m 0 min 0 min 0,0 UV-I 0 W/m 0,0 km/h (0 Bft)
11.06.2014 23:46 15,8 C 13,3 C 78 % 1027,4 hPa 0,0 l/m 0 min 0 min 0,0 UV-I 0 W/m 0,0 km/h (0 Bft)
11.06.2014 23:48 15,8 C 13,3 C 79 % 1027,4 hPa 0,0 l/m 0 min 0 min 0,0 UV-I 0 W/m 0,0 km/h (0 Bft)
11.06.2014 23:50 15,7 C 13,3 C 79 % 1027,5 hPa 0,0 l/m 0 min 0 min 0,0 UV-I 0 W/m 0,0 km/h (0 Bft)
11.06.2014 23:52 15,7 C 13,3 C 79 % 1027,4 hPa 0,0 l/m 0 min 0 min 0,0 UV-I 0 W/m 0,0 km/h (0 Bft)
11.06.2014 23:54 15,6 C 13,3 C 79 % 1027,4 hPa 0,0 l/m 0 min 0 min 0,0 UV-I 0 W/m 0,0 km/h (0 Bft)
11.06.2014 23:56 15,6 C 13,3 C 80 % 1027,4 hPa 0,0 l/m 0 min 0 min 0,0 UV-I 0 W/m 0,0 km/h (0 Bft)
11.06.2014 23:58 15,4 C 13,3 C 80 % 1027,4 hPa 0,0 l/m 0 min 0 min 0,0 UV-I 0 W/m 0,0 km/h (0 Bft)
_ Min-Zeit 08:06 07:00 17:02 01:56 - - - - - 00:14
Minimum _ 14,3 C 13,3 C 55 % 1020,4 hPa - - - - - 0,0 km/h (0 Bft)
_ Max-Zeit 17:02 14:22 02:44 23:50 01:30 10:24 00:48 12:44 12:46 13:48
Maximum _ 23,8 C 27,2 C 98 % 1027,5 hPa 0,4 l/m 2 min 2 min 3,6 UV-I 1027 W/m 27,2 km/h
N-NO (4 Bft)
Durchschnitt _ 19,0 C 18,1 C 80 % 1024,7 hPa #6,2 l/m #9:06 h #4:42 h 1,9 UV-I 352 W/m 9,9 km/h (2 Bft)
© 2014 W. Hausmann